<?xml version="1.0" encoding="UTF-8" standalone="no" ?>
<gpx xmlns="http://www.topografix.com/GPX/1/1" xmlns:xsi="http://www.w3.org/2001/XMLSchema-instance" xsi:schemaLocation="http://www.topografix.com/GPX/1/1 http://www.topografix.com/GPX/1/1/gpx.xsd" version="1.1" creator="VisuGPX - https://www.visugpx.com">
  <metadata>
    <name>PIC DE L\\\'ENTECADE 2268 M</name>
    <desc><![CDATA[Pic de l\\\'entecade jolie sommet un pied en France l\\\'autre en espagne
départ de l%u2019hospice de France (Bagneres de Louchon ) tout sur bon sentier bien marque au sol pas de repérés  panneau au croisement de l%u2019es-calette par temps clair pas de problème ,avec du brouillard pas la même chosse   ]]></desc>
  </metadata>
  <trk>
    <name><![CDATA[Pic Entacade 11-11-2015]]></name>
    <trkseg>
      <trkpt lat="42.72138" lon="0.65352">
        <ele>1370.5</ele>
        <time>2015-11-11T08:01:43Z</time>
      </trkpt>
      <trkpt lat="42.72138" lon="0.65352">
        <ele>1370.5</ele>
        <time>2015-11-11T08:01:44Z</time>
      </trkpt>
      <trkpt lat="42.72137" lon="0.65352">
        <ele>1370.02</ele>
        <time>2015-11-11T08:01:56Z</time>
      </trkpt>
      <trkpt lat="42.72137" lon="0.6535">
        <ele>1370.98</ele>
        <time>2015-11-11T08:02:16Z</time>
      </trkpt>
      <trkpt lat="42.72138" lon="0.65352">
        <ele>1370.98</ele>
        <time>2015-11-11T08:02:31Z</time>
      </trkpt>
      <trkpt lat="42.7214" lon="0.65352">
        <ele>1370.5</ele>
        <time>2015-11-11T08:02:46Z</time>
      </trkpt>
      <trkpt lat="42.72137" lon="0.65354">
        <ele>1367.61</ele>
        <time>2015-11-11T08:02:58Z</time>
      </trkpt>
      <trkpt lat="42.72138" lon="0.65354">
        <ele>1370.5</ele>
        <time>2015-11-11T08:02:59Z</time>
      </trkpt>
      <trkpt lat="42.72139" lon="0.65359">
        <ele>1370.5</ele>
        <time>2015-11-11T08:03:17Z</time>
      </trkpt>
      <trkpt lat="42.72139" lon="0.65363">
        <ele>1370.5</ele>
        <time>2015-11-11T08:03:40Z</time>
      </trkpt>
      <trkpt lat="42.7214" lon="0.65362">
        <ele>1369.05</ele>
        <time>2015-11-11T08:03:59Z</time>
      </trkpt>
      <trkpt lat="42.72138" lon="0.65366">
        <ele>1369.05</ele>
        <time>2015-11-11T08:04:19Z</time>
      </trkpt>
      <trkpt lat="42.72138" lon="0.65377">
        <ele>1369.05</ele>
        <time>2015-11-11T08:04:34Z</time>
      </trkpt>
      <trkpt lat="42.72135" lon="0.65392">
        <ele>1369.05</ele>
        <time>2015-11-11T08:04:48Z</time>
      </trkpt>
      <trkpt lat="42.72133" lon="0.6541">
        <ele>1370.98</ele>
        <time>2015-11-11T08:05:04Z</time>
      </trkpt>
      <trkpt lat="42.72124" lon="0.65427">
        <ele>1373.38</ele>
        <time>2015-11-11T08:05:23Z</time>
      </trkpt>
      <trkpt lat="42.72114" lon="0.65437">
        <ele>1375.78</ele>
        <time>2015-11-11T08:05:39Z</time>
      </trkpt>
      <trkpt lat="42.72104" lon="0.65454">
        <ele>1378.19</ele>
        <time>2015-11-11T08:05:57Z</time>
      </trkpt>
      <trkpt lat="42.72102" lon="0.65458">
        <ele>1378.67</ele>
        <time>2015-11-11T08:06:02Z</time>
      </trkpt>
      <trkpt lat="42.72097" lon="0.65478">
        <ele>1379.63</ele>
        <time>2015-11-11T08:06:18Z</time>
      </trkpt>
      <trkpt lat="42.72091" lon="0.65501">
        <ele>1379.63</ele>
        <time>2015-11-11T08:06:36Z</time>
      </trkpt>
      <trkpt lat="42.72083" lon="0.65523">
        <ele>1379.63</ele>
        <time>2015-11-11T08:06:54Z</time>
      </trkpt>
      <trkpt lat="42.7207" lon="0.65542">
        <ele>1380.59</ele>
        <time>2015-11-11T08:07:13Z</time>
      </trkpt>
      <trkpt lat="42.72059" lon="0.65556">
        <ele>1382.03</ele>
        <time>2015-11-11T08:07:29Z</time>
      </trkpt>
      <trkpt lat="42.72049" lon="0.65574">
        <ele>1383.96</ele>
        <time>2015-11-11T08:07:45Z</time>
      </trkpt>
      <trkpt lat="42.72045" lon="0.65589">
        <ele>1384.92</ele>
        <time>2015-11-11T08:08:00Z</time>
      </trkpt>
      <trkpt lat="42.72038" lon="0.65604">
        <ele>1386.84</ele>
        <time>2015-11-11T08:08:15Z</time>
      </trkpt>
      <trkpt lat="42.72029" lon="0.65624">
        <ele>1388.76</ele>
        <time>2015-11-11T08:08:32Z</time>
      </trkpt>
      <trkpt lat="42.72021" lon="0.65641">
        <ele>1390.68</ele>
        <time>2015-11-11T08:08:46Z</time>
      </trkpt>
      <trkpt lat="42.72014" lon="0.65655">
        <ele>1391.65</ele>
        <time>2015-11-11T08:08:59Z</time>
      </trkpt>
      <trkpt lat="42.72005" lon="0.65669">
        <ele>1393.57</ele>
        <time>2015-11-11T08:09:16Z</time>
      </trkpt>
      <trkpt lat="42.72003" lon="0.65688">
        <ele>1395.01</ele>
        <time>2015-11-11T08:09:32Z</time>
      </trkpt>
      <trkpt lat="42.71999" lon="0.65703">
        <ele>1396.45</ele>
        <time>2015-11-11T08:09:45Z</time>
      </trkpt>
      <trkpt lat="42.71993" lon="0.65719">
        <ele>1397.89</ele>
        <time>2015-11-11T08:10:00Z</time>
      </trkpt>
      <trkpt lat="42.71983" lon="0.65733">
        <ele>1399.82</ele>
        <time>2015-11-11T08:10:17Z</time>
      </trkpt>
      <trkpt lat="42.71971" lon="0.6574">
        <ele>1402.7</ele>
        <time>2015-11-11T08:10:36Z</time>
      </trkpt>
      <trkpt lat="42.7196" lon="0.65745">
        <ele>1405.1</ele>
        <time>2015-11-11T08:10:52Z</time>
      </trkpt>
      <trkpt lat="42.71949" lon="0.65763">
        <ele>1407.03</ele>
        <time>2015-11-11T08:11:09Z</time>
      </trkpt>
      <trkpt lat="42.71939" lon="0.65772">
        <ele>1408.95</ele>
        <time>2015-11-11T08:11:23Z</time>
      </trkpt>
      <trkpt lat="42.71928" lon="0.65776">
        <ele>1410.87</ele>
        <time>2015-11-11T08:11:37Z</time>
      </trkpt>
      <trkpt lat="42.7192" lon="0.65793">
        <ele>1412.79</ele>
        <time>2015-11-11T08:11:52Z</time>
      </trkpt>
      <trkpt lat="42.71907" lon="0.65803">
        <ele>1414.72</ele>
        <time>2015-11-11T08:12:10Z</time>
      </trkpt>
      <trkpt lat="42.71894" lon="0.65815">
        <ele>1415.68</ele>
        <time>2015-11-11T08:12:27Z</time>
      </trkpt>
      <trkpt lat="42.71886" lon="0.65823">
        <ele>1416.64</ele>
        <time>2015-11-11T08:12:44Z</time>
      </trkpt>
      <trkpt lat="42.71871" lon="0.65827">
        <ele>1418.08</ele>
        <time>2015-11-11T08:13:01Z</time>
      </trkpt>
      <trkpt lat="42.71857" lon="0.65836">
        <ele>1420.49</ele>
        <time>2015-11-11T08:13:19Z</time>
      </trkpt>
      <trkpt lat="42.71838" lon="0.65839">
        <ele>1422.41</ele>
        <time>2015-11-11T08:13:37Z</time>
      </trkpt>
      <trkpt lat="42.7183" lon="0.65855">
        <ele>1424.33</ele>
        <time>2015-11-11T08:13:55Z</time>
      </trkpt>
      <trkpt lat="42.7182" lon="0.65865">
        <ele>1426.73</ele>
        <time>2015-11-11T08:14:11Z</time>
      </trkpt>
      <trkpt lat="42.71828" lon="0.65872">
        <ele>1429.14</ele>
        <time>2015-11-11T08:14:28Z</time>
      </trkpt>
      <trkpt lat="42.7184" lon="0.65866">
        <ele>1430.1</ele>
        <time>2015-11-11T08:14:43Z</time>
      </trkpt>
      <trkpt lat="42.71852" lon="0.65861">
        <ele>1432.02</ele>
        <time>2015-11-11T08:15:03Z</time>
      </trkpt>
      <trkpt lat="42.71849" lon="0.65875">
        <ele>1434.91</ele>
        <time>2015-11-11T08:15:19Z</time>
      </trkpt>
      <trkpt lat="42.71837" lon="0.65884">
        <ele>1437.31</ele>
        <time>2015-11-11T08:15:39Z</time>
      </trkpt>
      <trkpt lat="42.71827" lon="0.65894">
        <ele>1440.19</ele>
        <time>2015-11-11T08:15:58Z</time>
      </trkpt>
      <trkpt lat="42.71819" lon="0.65915">
        <ele>1441.63</ele>
        <time>2015-11-11T08:16:18Z</time>
      </trkpt>
      <trkpt lat="42.71814" lon="0.65935">
        <ele>1445</ele>
        <time>2015-11-11T08:16:37Z</time>
      </trkpt>
      <trkpt lat="42.71809" lon="0.65953">
        <ele>1446.92</ele>
        <time>2015-11-11T08:16:54Z</time>
      </trkpt>
      <trkpt lat="42.71808" lon="0.6596">
        <ele>1448.84</ele>
        <time>2015-11-11T08:17:11Z</time>
      </trkpt>
      <trkpt lat="42.71815" lon="0.65959">
        <ele>1450.77</ele>
        <time>2015-11-11T08:17:28Z</time>
      </trkpt>
      <trkpt lat="42.7183" lon="0.65948">
        <ele>1452.69</ele>
        <time>2015-11-11T08:17:47Z</time>
      </trkpt>
      <trkpt lat="42.71845" lon="0.65939">
        <ele>1455.09</ele>
        <time>2015-11-11T08:18:05Z</time>
      </trkpt>
      <trkpt lat="42.71859" lon="0.65935">
        <ele>1457.5</ele>
        <time>2015-11-11T08:18:25Z</time>
      </trkpt>
      <trkpt lat="42.71871" lon="0.65933">
        <ele>1460.86</ele>
        <time>2015-11-11T08:18:47Z</time>
      </trkpt>
      <trkpt lat="42.71866" lon="0.65942">
        <ele>1462.78</ele>
        <time>2015-11-11T08:19:04Z</time>
      </trkpt>
      <trkpt lat="42.71857" lon="0.6595">
        <ele>1466.15</ele>
        <time>2015-11-11T08:19:22Z</time>
      </trkpt>
      <trkpt lat="42.71853" lon="0.65964">
        <ele>1468.07</ele>
        <time>2015-11-11T08:19:39Z</time>
      </trkpt>
      <trkpt lat="42.71849" lon="0.6598">
        <ele>1470.95</ele>
        <time>2015-11-11T08:19:57Z</time>
      </trkpt>
      <trkpt lat="42.71859" lon="0.65978">
        <ele>1473.84</ele>
        <time>2015-11-11T08:20:18Z</time>
      </trkpt>
      <trkpt lat="42.71864" lon="0.65981">
        <ele>1476.24</ele>
        <time>2015-11-11T08:20:35Z</time>
      </trkpt>
      <trkpt lat="42.71858" lon="0.65988">
        <ele>1479.13</ele>
        <time>2015-11-11T08:20:54Z</time>
      </trkpt>
      <trkpt lat="42.71853" lon="0.66004">
        <ele>1481.53</ele>
        <time>2015-11-11T08:21:13Z</time>
      </trkpt>
      <trkpt lat="42.71846" lon="0.66021">
        <ele>1484.41</ele>
        <time>2015-11-11T08:21:32Z</time>
      </trkpt>
      <trkpt lat="42.7184" lon="0.66029">
        <ele>1486.82</ele>
        <time>2015-11-11T08:21:47Z</time>
      </trkpt>
      <trkpt lat="42.71834" lon="0.66045">
        <ele>1489.7</ele>
        <time>2015-11-11T08:22:08Z</time>
      </trkpt>
      <trkpt lat="42.71829" lon="0.66061">
        <ele>1492.1</ele>
        <time>2015-11-11T08:22:28Z</time>
      </trkpt>
      <trkpt lat="42.71826" lon="0.66072">
        <ele>1494.99</ele>
        <time>2015-11-11T08:22:44Z</time>
      </trkpt>
      <trkpt lat="42.71822" lon="0.66088">
        <ele>1496.91</ele>
        <time>2015-11-11T08:22:59Z</time>
      </trkpt>
      <trkpt lat="42.71816" lon="0.66101">
        <ele>1499.31</ele>
        <time>2015-11-11T08:23:15Z</time>
      </trkpt>
      <trkpt lat="42.71811" lon="0.66116">
        <ele>1502.2</ele>
        <time>2015-11-11T08:23:33Z</time>
      </trkpt>
      <trkpt lat="42.7181" lon="0.66135">
        <ele>1505.08</ele>
        <time>2015-11-11T08:23:48Z</time>
      </trkpt>
      <trkpt lat="42.71803" lon="0.66153">
        <ele>1507</ele>
        <time>2015-11-11T08:24:05Z</time>
      </trkpt>
      <trkpt lat="42.71796" lon="0.66164">
        <ele>1508.93</ele>
        <time>2015-11-11T08:24:23Z</time>
      </trkpt>
      <trkpt lat="42.71791" lon="0.66169">
        <ele>1510.37</ele>
        <time>2015-11-11T08:24:48Z</time>
      </trkpt>
      <trkpt lat="42.71794" lon="0.66169">
        <ele>1510.37</ele>
        <time>2015-11-11T08:25:13Z</time>
      </trkpt>
      <trkpt lat="42.71799" lon="0.66166">
        <ele>1508.93</ele>
        <time>2015-11-11T08:25:38Z</time>
      </trkpt>
      <trkpt lat="42.718" lon="0.66167">
        <ele>1510.85</ele>
        <time>2015-11-11T08:25:40Z</time>
      </trkpt>
      <trkpt lat="42.71795" lon="0.66167">
        <ele>1510.85</ele>
        <time>2015-11-11T08:26:01Z</time>
      </trkpt>
      <trkpt lat="42.71793" lon="0.66169">
        <ele>1510.37</ele>
        <time>2015-11-11T08:26:26Z</time>
      </trkpt>
      <trkpt lat="42.71797" lon="0.66175">
        <ele>1510.37</ele>
        <time>2015-11-11T08:26:46Z</time>
      </trkpt>
      <trkpt lat="42.71794" lon="0.66182">
        <ele>1511.81</ele>
        <time>2015-11-11T08:27:02Z</time>
      </trkpt>
      <trkpt lat="42.71796" lon="0.66179">
        <ele>1511.81</ele>
        <time>2015-11-11T08:27:22Z</time>
      </trkpt>
      <trkpt lat="42.71798" lon="0.66176">
        <ele>1511.81</ele>
        <time>2015-11-11T08:27:42Z</time>
      </trkpt>
      <trkpt lat="42.71791" lon="0.66184">
        <ele>1512.77</ele>
        <time>2015-11-11T08:27:58Z</time>
      </trkpt>
      <trkpt lat="42.71784" lon="0.66195">
        <ele>1513.73</ele>
        <time>2015-11-11T08:28:24Z</time>
      </trkpt>
      <trkpt lat="42.71776" lon="0.66206">
        <ele>1515.66</ele>
        <time>2015-11-11T08:28:40Z</time>
      </trkpt>
      <trkpt lat="42.71772" lon="0.66215">
        <ele>1518.06</ele>
        <time>2015-11-11T08:28:58Z</time>
      </trkpt>
      <trkpt lat="42.71766" lon="0.66221">
        <ele>1520.46</ele>
        <time>2015-11-11T08:29:11Z</time>
      </trkpt>
      <trkpt lat="42.71765" lon="0.66229">
        <ele>1522.39</ele>
        <time>2015-11-11T08:29:24Z</time>
      </trkpt>
      <trkpt lat="42.71762" lon="0.66242">
        <ele>1524.79</ele>
        <time>2015-11-11T08:29:37Z</time>
      </trkpt>
      <trkpt lat="42.71761" lon="0.66256">
        <ele>1526.23</ele>
        <time>2015-11-11T08:29:52Z</time>
      </trkpt>
      <trkpt lat="42.71756" lon="0.66265">
        <ele>1528.63</ele>
        <time>2015-11-11T08:30:07Z</time>
      </trkpt>
      <trkpt lat="42.71756" lon="0.66272">
        <ele>1530.08</ele>
        <time>2015-11-11T08:30:24Z</time>
      </trkpt>
      <trkpt lat="42.71754" lon="0.66285">
        <ele>1532</ele>
        <time>2015-11-11T08:30:39Z</time>
      </trkpt>
      <trkpt lat="42.71753" lon="0.66297">
        <ele>1533.92</ele>
        <time>2015-11-11T08:30:53Z</time>
      </trkpt>
      <trkpt lat="42.71755" lon="0.663">
        <ele>1535.36</ele>
        <time>2015-11-11T08:31:06Z</time>
      </trkpt>
      <trkpt lat="42.71763" lon="0.66289">
        <ele>1537.29</ele>
        <time>2015-11-11T08:31:22Z</time>
      </trkpt>
      <trkpt lat="42.71772" lon="0.66281">
        <ele>1538.73</ele>
        <time>2015-11-11T08:31:35Z</time>
      </trkpt>
      <trkpt lat="42.7177" lon="0.66267">
        <ele>1539.21</ele>
        <time>2015-11-11T08:31:50Z</time>
      </trkpt>
      <trkpt lat="42.71777" lon="0.66257">
        <ele>1539.21</ele>
        <time>2015-11-11T08:32:04Z</time>
      </trkpt>
      <trkpt lat="42.71783" lon="0.6625">
        <ele>1537.77</ele>
        <time>2015-11-11T08:32:12Z</time>
      </trkpt>
      <trkpt lat="42.71793" lon="0.66247">
        <ele>1539.69</ele>
        <time>2015-11-11T08:32:22Z</time>
      </trkpt>
      <trkpt lat="42.71804" lon="0.66246">
        <ele>1541.13</ele>
        <time>2015-11-11T08:32:37Z</time>
      </trkpt>
      <trkpt lat="42.71812" lon="0.66244">
        <ele>1542.09</ele>
        <time>2015-11-11T08:32:49Z</time>
      </trkpt>
      <trkpt lat="42.71819" lon="0.66242">
        <ele>1544.5</ele>
        <time>2015-11-11T08:33:01Z</time>
      </trkpt>
      <trkpt lat="42.71825" lon="0.66233">
        <ele>1546.42</ele>
        <time>2015-11-11T08:33:15Z</time>
      </trkpt>
      <trkpt lat="42.71835" lon="0.66225">
        <ele>1547.86</ele>
        <time>2015-11-11T08:33:30Z</time>
      </trkpt>
      <trkpt lat="42.71843" lon="0.66216">
        <ele>1548.82</ele>
        <time>2015-11-11T08:33:47Z</time>
      </trkpt>
      <trkpt lat="42.71851" lon="0.66208">
        <ele>1550.26</ele>
        <time>2015-11-11T08:33:59Z</time>
      </trkpt>
      <trkpt lat="42.71862" lon="0.66199">
        <ele>1552.67</ele>
        <time>2015-11-11T08:34:15Z</time>
      </trkpt>
      <trkpt lat="42.71869" lon="0.66186">
        <ele>1553.63</ele>
        <time>2015-11-11T08:34:30Z</time>
      </trkpt>
      <trkpt lat="42.71875" lon="0.66179">
        <ele>1555.07</ele>
        <time>2015-11-11T08:34:44Z</time>
      </trkpt>
      <trkpt lat="42.71881" lon="0.66172">
        <ele>1556.51</ele>
        <time>2015-11-11T08:34:56Z</time>
      </trkpt>
      <trkpt lat="42.71889" lon="0.66164">
        <ele>1559.4</ele>
        <time>2015-11-11T08:35:11Z</time>
      </trkpt>
      <trkpt lat="42.71898" lon="0.66161">
        <ele>1561.32</ele>
        <time>2015-11-11T08:35:25Z</time>
      </trkpt>
      <trkpt lat="42.71903" lon="0.66159">
        <ele>1563.24</ele>
        <time>2015-11-11T08:35:40Z</time>
      </trkpt>
      <trkpt lat="42.71909" lon="0.66155">
        <ele>1566.12</ele>
        <time>2015-11-11T08:35:55Z</time>
      </trkpt>
      <trkpt lat="42.71918" lon="0.66153">
        <ele>1568.53</ele>
        <time>2015-11-11T08:36:09Z</time>
      </trkpt>
      <trkpt lat="42.71928" lon="0.66151">
        <ele>1570.93</ele>
        <time>2015-11-11T08:36:25Z</time>
      </trkpt>
      <trkpt lat="42.71934" lon="0.66149">
        <ele>1572.85</ele>
        <time>2015-11-11T08:36:39Z</time>
      </trkpt>
      <trkpt lat="42.71941" lon="0.66146">
        <ele>1575.26</ele>
        <time>2015-11-11T08:36:53Z</time>
      </trkpt>
      <trkpt lat="42.7195" lon="0.66148">
        <ele>1577.18</ele>
        <time>2015-11-11T08:37:08Z</time>
      </trkpt>
      <trkpt lat="42.71946" lon="0.66156">
        <ele>1579.58</ele>
        <time>2015-11-11T08:37:25Z</time>
      </trkpt>
      <trkpt lat="42.71943" lon="0.66164">
        <ele>1581.03</ele>
        <time>2015-11-11T08:37:39Z</time>
      </trkpt>
      <trkpt lat="42.71936" lon="0.66168">
        <ele>1582.95</ele>
        <time>2015-11-11T08:37:55Z</time>
      </trkpt>
      <trkpt lat="42.71932" lon="0.66179">
        <ele>1585.35</ele>
        <time>2015-11-11T08:38:11Z</time>
      </trkpt>
      <trkpt lat="42.71926" lon="0.66188">
        <ele>1587.75</ele>
        <time>2015-11-11T08:38:26Z</time>
      </trkpt>
      <trkpt lat="42.7192" lon="0.66195">
        <ele>1589.68</ele>
        <time>2015-11-11T08:38:39Z</time>
      </trkpt>
      <trkpt lat="42.71913" lon="0.66205">
        <ele>1592.08</ele>
        <time>2015-11-11T08:38:55Z</time>
      </trkpt>
      <trkpt lat="42.71911" lon="0.66213">
        <ele>1594</ele>
        <time>2015-11-11T08:39:07Z</time>
      </trkpt>
      <trkpt lat="42.71909" lon="0.66218">
        <ele>1594.96</ele>
        <time>2015-11-11T08:39:20Z</time>
      </trkpt>
      <trkpt lat="42.7191" lon="0.66221">
        <ele>1595.45</ele>
        <time>2015-11-11T08:39:40Z</time>
      </trkpt>
      <trkpt lat="42.71909" lon="0.66221">
        <ele>1595.45</ele>
        <time>2015-11-11T08:39:59Z</time>
      </trkpt>
      <trkpt lat="42.71909" lon="0.66221">
        <ele>1595.45</ele>
        <time>2015-11-11T08:40:17Z</time>
      </trkpt>
      <trkpt lat="42.71909" lon="0.66219">
        <ele>1595.45</ele>
        <time>2015-11-11T08:40:35Z</time>
      </trkpt>
      <trkpt lat="42.71908" lon="0.66221">
        <ele>1595.45</ele>
        <time>2015-11-11T08:40:49Z</time>
      </trkpt>
      <trkpt lat="42.71907" lon="0.6622">
        <ele>1595.45</ele>
        <time>2015-11-11T08:41:11Z</time>
      </trkpt>
      <trkpt lat="42.71906" lon="0.66222">
        <ele>1595.45</ele>
        <time>2015-11-11T08:41:34Z</time>
      </trkpt>
      <trkpt lat="42.71908" lon="0.66222">
        <ele>1595.93</ele>
        <time>2015-11-11T08:41:59Z</time>
      </trkpt>
      <trkpt lat="42.71914" lon="0.66221">
        <ele>1598.81</ele>
        <time>2015-11-11T08:42:12Z</time>
      </trkpt>
      <trkpt lat="42.7192" lon="0.66214">
        <ele>1600.25</ele>
        <time>2015-11-11T08:42:28Z</time>
      </trkpt>
      <trkpt lat="42.71918" lon="0.66214">
        <ele>1600.25</ele>
        <time>2015-11-11T08:42:47Z</time>
      </trkpt>
      <trkpt lat="42.7192" lon="0.66216">
        <ele>1600.25</ele>
        <time>2015-11-11T08:43:05Z</time>
      </trkpt>
      <trkpt lat="42.71922" lon="0.66214">
        <ele>1600.25</ele>
        <time>2015-11-11T08:43:24Z</time>
      </trkpt>
      <trkpt lat="42.71924" lon="0.66211">
        <ele>1600.25</ele>
        <time>2015-11-11T08:43:30Z</time>
      </trkpt>
      <trkpt lat="42.71933" lon="0.66208">
        <ele>1601.21</ele>
        <time>2015-11-11T08:43:43Z</time>
      </trkpt>
      <trkpt lat="42.71938" lon="0.66205">
        <ele>1603.14</ele>
        <time>2015-11-11T08:43:56Z</time>
      </trkpt>
      <trkpt lat="42.71947" lon="0.66201">
        <ele>1604.58</ele>
        <time>2015-11-11T08:44:11Z</time>
      </trkpt>
      <trkpt lat="42.71954" lon="0.66197">
        <ele>1606.02</ele>
        <time>2015-11-11T08:44:22Z</time>
      </trkpt>
      <trkpt lat="42.71959" lon="0.66194">
        <ele>1608.42</ele>
        <time>2015-11-11T08:44:36Z</time>
      </trkpt>
      <trkpt lat="42.71963" lon="0.66194">
        <ele>1609.38</ele>
        <time>2015-11-11T08:44:51Z</time>
      </trkpt>
      <trkpt lat="42.71971" lon="0.66198">
        <ele>1610.35</ele>
        <time>2015-11-11T08:45:04Z</time>
      </trkpt>
      <trkpt lat="42.7198" lon="0.66199">
        <ele>1613.23</ele>
        <time>2015-11-11T08:45:17Z</time>
      </trkpt>
      <trkpt lat="42.71986" lon="0.662">
        <ele>1614.67</ele>
        <time>2015-11-11T08:45:31Z</time>
      </trkpt>
      <trkpt lat="42.7199" lon="0.662">
        <ele>1616.11</ele>
        <time>2015-11-11T08:45:45Z</time>
      </trkpt>
      <trkpt lat="42.71995" lon="0.66199">
        <ele>1618.04</ele>
        <time>2015-11-11T08:45:59Z</time>
      </trkpt>
      <trkpt lat="42.72001" lon="0.66192">
        <ele>1620.44</ele>
        <time>2015-11-11T08:46:14Z</time>
      </trkpt>
      <trkpt lat="42.72003" lon="0.66188">
        <ele>1621.4</ele>
        <time>2015-11-11T08:46:32Z</time>
      </trkpt>
      <trkpt lat="42.72011" lon="0.66185">
        <ele>1623.32</ele>
        <time>2015-11-11T08:46:44Z</time>
      </trkpt>
      <trkpt lat="42.72016" lon="0.66188">
        <ele>1625.73</ele>
        <time>2015-11-11T08:46:57Z</time>
      </trkpt>
      <trkpt lat="42.72012" lon="0.66204">
        <ele>1628.61</ele>
        <time>2015-11-11T08:47:15Z</time>
      </trkpt>
      <trkpt lat="42.72008" lon="0.66215">
        <ele>1630.53</ele>
        <time>2015-11-11T08:47:31Z</time>
      </trkpt>
      <trkpt lat="42.72007" lon="0.66224">
        <ele>1633.42</ele>
        <time>2015-11-11T08:47:45Z</time>
      </trkpt>
      <trkpt lat="42.72007" lon="0.66233">
        <ele>1635.34</ele>
        <time>2015-11-11T08:48:00Z</time>
      </trkpt>
      <trkpt lat="42.72003" lon="0.6624">
        <ele>1638.22</ele>
        <time>2015-11-11T08:48:16Z</time>
      </trkpt>
      <trkpt lat="42.71996" lon="0.66248">
        <ele>1640.15</ele>
        <time>2015-11-11T08:48:32Z</time>
      </trkpt>
      <trkpt lat="42.71988" lon="0.66253">
        <ele>1642.55</ele>
        <time>2015-11-11T08:48:50Z</time>
      </trkpt>
      <trkpt lat="42.71986" lon="0.66259">
        <ele>1643.51</ele>
        <time>2015-11-11T08:48:57Z</time>
      </trkpt>
      <trkpt lat="42.71982" lon="0.66273">
        <ele>1645.43</ele>
        <time>2015-11-11T08:49:12Z</time>
      </trkpt>
      <trkpt lat="42.71981" lon="0.66289">
        <ele>1647.36</ele>
        <time>2015-11-11T08:49:27Z</time>
      </trkpt>
      <trkpt lat="42.71981" lon="0.66306">
        <ele>1648.32</ele>
        <time>2015-11-11T08:49:42Z</time>
      </trkpt>
      <trkpt lat="42.71973" lon="0.66317">
        <ele>1650.72</ele>
        <time>2015-11-11T08:50:00Z</time>
      </trkpt>
      <trkpt lat="42.71967" lon="0.66326">
        <ele>1653.12</ele>
        <time>2015-11-11T08:50:15Z</time>
      </trkpt>
      <trkpt lat="42.71963" lon="0.66334">
        <ele>1655.05</ele>
        <time>2015-11-11T08:50:30Z</time>
      </trkpt>
      <trkpt lat="42.7196" lon="0.66343">
        <ele>1656.97</ele>
        <time>2015-11-11T08:50:44Z</time>
      </trkpt>
      <trkpt lat="42.71956" lon="0.6635">
        <ele>1659.37</ele>
        <time>2015-11-11T08:50:59Z</time>
      </trkpt>
      <trkpt lat="42.71954" lon="0.66357">
        <ele>1661.3</ele>
        <time>2015-11-11T08:51:13Z</time>
      </trkpt>
      <trkpt lat="42.71946" lon="0.66361">
        <ele>1663.7</ele>
        <time>2015-11-11T08:51:28Z</time>
      </trkpt>
      <trkpt lat="42.71941" lon="0.66374">
        <ele>1665.62</ele>
        <time>2015-11-11T08:51:44Z</time>
      </trkpt>
      <trkpt lat="42.71935" lon="0.66386">
        <ele>1667.54</ele>
        <time>2015-11-11T08:52:00Z</time>
      </trkpt>
      <trkpt lat="42.71931" lon="0.66395">
        <ele>1668.99</ele>
        <time>2015-11-11T08:52:12Z</time>
      </trkpt>
      <trkpt lat="42.71927" lon="0.66405">
        <ele>1670.91</ele>
        <time>2015-11-11T08:52:27Z</time>
      </trkpt>
      <trkpt lat="42.71927" lon="0.66406">
        <ele>1670.91</ele>
        <time>2015-11-11T08:52:29Z</time>
      </trkpt>
      <trkpt lat="42.71921" lon="0.66416">
        <ele>1673.31</ele>
        <time>2015-11-11T08:52:45Z</time>
      </trkpt>
      <trkpt lat="42.71918" lon="0.66418">
        <ele>1674.27</ele>
        <time>2015-11-11T08:52:59Z</time>
      </trkpt>
      <trkpt lat="42.71916" lon="0.66418">
        <ele>1674.27</ele>
        <time>2015-11-11T08:53:17Z</time>
      </trkpt>
      <trkpt lat="42.71907" lon="0.6642">
        <ele>1676.2</ele>
        <time>2015-11-11T08:53:31Z</time>
      </trkpt>
      <trkpt lat="42.719" lon="0.66425">
        <ele>1678.12</ele>
        <time>2015-11-11T08:53:43Z</time>
      </trkpt>
      <trkpt lat="42.71898" lon="0.66432">
        <ele>1679.56</ele>
        <time>2015-11-11T08:53:52Z</time>
      </trkpt>
      <trkpt lat="42.71886" lon="0.66437">
        <ele>1681.48</ele>
        <time>2015-11-11T08:54:07Z</time>
      </trkpt>
      <trkpt lat="42.71882" lon="0.6644">
        <ele>1683.89</ele>
        <time>2015-11-11T08:54:23Z</time>
      </trkpt>
      <trkpt lat="42.71875" lon="0.66441">
        <ele>1686.77</ele>
        <time>2015-11-11T08:54:38Z</time>
      </trkpt>
      <trkpt lat="42.71866" lon="0.66441">
        <ele>1688.69</ele>
        <time>2015-11-11T08:54:54Z</time>
      </trkpt>
      <trkpt lat="42.71866" lon="0.66449">
        <ele>1690.62</ele>
        <time>2015-11-11T08:55:08Z</time>
      </trkpt>
      <trkpt lat="42.71871" lon="0.66456">
        <ele>1692.54</ele>
        <time>2015-11-11T08:55:22Z</time>
      </trkpt>
      <trkpt lat="42.71862" lon="0.66461">
        <ele>1694.94</ele>
        <time>2015-11-11T08:55:37Z</time>
      </trkpt>
      <trkpt lat="42.71855" lon="0.66468">
        <ele>1696.86</ele>
        <time>2015-11-11T08:55:53Z</time>
      </trkpt>
      <trkpt lat="42.7186" lon="0.66475">
        <ele>1699.27</ele>
        <time>2015-11-11T08:56:08Z</time>
      </trkpt>
      <trkpt lat="42.71859" lon="0.66482">
        <ele>1701.19</ele>
        <time>2015-11-11T08:56:24Z</time>
      </trkpt>
      <trkpt lat="42.71853" lon="0.66489">
        <ele>1704.07</ele>
        <time>2015-11-11T08:56:41Z</time>
      </trkpt>
      <trkpt lat="42.71854" lon="0.66499">
        <ele>1706</ele>
        <time>2015-11-11T08:56:57Z</time>
      </trkpt>
      <trkpt lat="42.71857" lon="0.66506">
        <ele>1706.96</ele>
        <time>2015-11-11T08:57:10Z</time>
      </trkpt>
      <trkpt lat="42.71858" lon="0.6652">
        <ele>1707.92</ele>
        <time>2015-11-11T08:57:23Z</time>
      </trkpt>
      <trkpt lat="42.71849" lon="0.66533">
        <ele>1708.88</ele>
        <time>2015-11-11T08:57:39Z</time>
      </trkpt>
      <trkpt lat="42.71842" lon="0.66539">
        <ele>1710.8</ele>
        <time>2015-11-11T08:57:53Z</time>
      </trkpt>
      <trkpt lat="42.71839" lon="0.66548">
        <ele>1711.76</ele>
        <time>2015-11-11T08:58:06Z</time>
      </trkpt>
      <trkpt lat="42.71839" lon="0.66548">
        <ele>1711.76</ele>
        <time>2015-11-11T08:58:24Z</time>
      </trkpt>
      <trkpt lat="42.7184" lon="0.66548">
        <ele>1711.76</ele>
        <time>2015-11-11T08:58:48Z</time>
      </trkpt>
      <trkpt lat="42.71838" lon="0.66551">
        <ele>1711.76</ele>
        <time>2015-11-11T08:59:00Z</time>
      </trkpt>
      <trkpt lat="42.71837" lon="0.66565">
        <ele>1712.73</ele>
        <time>2015-11-11T08:59:11Z</time>
      </trkpt>
      <trkpt lat="42.71836" lon="0.66577">
        <ele>1714.65</ele>
        <time>2015-11-11T08:59:26Z</time>
      </trkpt>
      <trkpt lat="42.71836" lon="0.66579">
        <ele>1715.13</ele>
        <time>2015-11-11T08:59:39Z</time>
      </trkpt>
      <trkpt lat="42.71837" lon="0.66594">
        <ele>1717.53</ele>
        <time>2015-11-11T08:59:53Z</time>
      </trkpt>
      <trkpt lat="42.71841" lon="0.6661">
        <ele>1720.42</ele>
        <time>2015-11-11T09:00:09Z</time>
      </trkpt>
      <trkpt lat="42.71841" lon="0.66625">
        <ele>1722.82</ele>
        <time>2015-11-11T09:00:26Z</time>
      </trkpt>
      <trkpt lat="42.71842" lon="0.66638">
        <ele>1723.78</ele>
        <time>2015-11-11T09:00:37Z</time>
      </trkpt>
      <trkpt lat="42.71844" lon="0.66655">
        <ele>1724.74</ele>
        <time>2015-11-11T09:00:51Z</time>
      </trkpt>
      <trkpt lat="42.71844" lon="0.66672">
        <ele>1725.7</ele>
        <time>2015-11-11T09:01:05Z</time>
      </trkpt>
      <trkpt lat="42.71846" lon="0.6669">
        <ele>1727.15</ele>
        <time>2015-11-11T09:01:19Z</time>
      </trkpt>
      <trkpt lat="42.71846" lon="0.66704">
        <ele>1729.07</ele>
        <time>2015-11-11T09:01:32Z</time>
      </trkpt>
      <trkpt lat="42.71848" lon="0.66723">
        <ele>1730.99</ele>
        <time>2015-11-11T09:01:47Z</time>
      </trkpt>
      <trkpt lat="42.7185" lon="0.66741">
        <ele>1732.91</ele>
        <time>2015-11-11T09:02:02Z</time>
      </trkpt>
      <trkpt lat="42.71851" lon="0.66753">
        <ele>1734.36</ele>
        <time>2015-11-11T09:02:14Z</time>
      </trkpt>
      <trkpt lat="42.7185" lon="0.66765">
        <ele>1735.32</ele>
        <time>2015-11-11T09:02:28Z</time>
      </trkpt>
      <trkpt lat="42.71854" lon="0.6677">
        <ele>1736.28</ele>
        <time>2015-11-11T09:02:45Z</time>
      </trkpt>
      <trkpt lat="42.71851" lon="0.66775">
        <ele>1736.76</ele>
        <time>2015-11-11T09:03:03Z</time>
      </trkpt>
      <trkpt lat="42.71852" lon="0.66776">
        <ele>1737.24</ele>
        <time>2015-11-11T09:03:26Z</time>
      </trkpt>
      <trkpt lat="42.7185" lon="0.66776">
        <ele>1737.24</ele>
        <time>2015-11-11T09:03:44Z</time>
      </trkpt>
      <trkpt lat="42.71852" lon="0.66776">
        <ele>1737.24</ele>
        <time>2015-11-11T09:04:04Z</time>
      </trkpt>
      <trkpt lat="42.71855" lon="0.66783">
        <ele>1738.2</ele>
        <time>2015-11-11T09:04:18Z</time>
      </trkpt>
      <trkpt lat="42.71854" lon="0.66781">
        <ele>1738.68</ele>
        <time>2015-11-11T09:04:31Z</time>
      </trkpt>
      <trkpt lat="42.71856" lon="0.66783">
        <ele>1744.93</ele>
        <time>2015-11-11T09:15:50Z</time>
      </trkpt>
      <trkpt lat="42.71856" lon="0.66783">
        <ele>1744.93</ele>
        <time>2015-11-11T09:15:51Z</time>
      </trkpt>
      <trkpt lat="42.71856" lon="0.66784">
        <ele>1748.29</ele>
        <time>2015-11-11T09:16:06Z</time>
      </trkpt>
      <trkpt lat="42.71856" lon="0.66784">
        <ele>1748.29</ele>
        <time>2015-11-11T09:16:07Z</time>
      </trkpt>
      <trkpt lat="42.71855" lon="0.66794">
        <ele>1749.26</ele>
        <time>2015-11-11T09:16:24Z</time>
      </trkpt>
      <trkpt lat="42.71858" lon="0.66812">
        <ele>1752.62</ele>
        <time>2015-11-11T09:16:42Z</time>
      </trkpt>
      <trkpt lat="42.71858" lon="0.66827">
        <ele>1753.58</ele>
        <time>2015-11-11T09:16:58Z</time>
      </trkpt>
      <trkpt lat="42.71858" lon="0.66835">
        <ele>1755.02</ele>
        <time>2015-11-11T09:17:06Z</time>
      </trkpt>
      <trkpt lat="42.7186" lon="0.66857">
        <ele>1755.99</ele>
        <time>2015-11-11T09:17:24Z</time>
      </trkpt>
      <trkpt lat="42.7186" lon="0.66876">
        <ele>1757.43</ele>
        <time>2015-11-11T09:17:39Z</time>
      </trkpt>
      <trkpt lat="42.71859" lon="0.66895">
        <ele>1758.87</ele>
        <time>2015-11-11T09:17:53Z</time>
      </trkpt>
      <trkpt lat="42.7186" lon="0.66914">
        <ele>1760.79</ele>
        <time>2015-11-11T09:18:09Z</time>
      </trkpt>
      <trkpt lat="42.7186" lon="0.66933">
        <ele>1762.71</ele>
        <time>2015-11-11T09:18:25Z</time>
      </trkpt>
      <trkpt lat="42.71862" lon="0.6695">
        <ele>1764.16</ele>
        <time>2015-11-11T09:18:39Z</time>
      </trkpt>
      <trkpt lat="42.7186" lon="0.66968">
        <ele>1765.6</ele>
        <time>2015-11-11T09:18:55Z</time>
      </trkpt>
      <trkpt lat="42.7186" lon="0.66985">
        <ele>1768.48</ele>
        <time>2015-11-11T09:19:12Z</time>
      </trkpt>
      <trkpt lat="42.71858" lon="0.67003">
        <ele>1770.41</ele>
        <time>2015-11-11T09:19:29Z</time>
      </trkpt>
      <trkpt lat="42.71856" lon="0.67017">
        <ele>1772.33</ele>
        <time>2015-11-11T09:19:45Z</time>
      </trkpt>
      <trkpt lat="42.71855" lon="0.67033">
        <ele>1774.25</ele>
        <time>2015-11-11T09:20:00Z</time>
      </trkpt>
      <trkpt lat="42.71854" lon="0.67046">
        <ele>1776.17</ele>
        <time>2015-11-11T09:20:13Z</time>
      </trkpt>
      <trkpt lat="42.71853" lon="0.67061">
        <ele>1778.1</ele>
        <time>2015-11-11T09:20:27Z</time>
      </trkpt>
      <trkpt lat="42.71849" lon="0.67074">
        <ele>1780.5</ele>
        <time>2015-11-11T09:20:42Z</time>
      </trkpt>
      <trkpt lat="42.71844" lon="0.67086">
        <ele>1783.38</ele>
        <time>2015-11-11T09:20:59Z</time>
      </trkpt>
      <trkpt lat="42.7184" lon="0.67099">
        <ele>1785.79</ele>
        <time>2015-11-11T09:21:15Z</time>
      </trkpt>
      <trkpt lat="42.71839" lon="0.67113">
        <ele>1787.23</ele>
        <time>2015-11-11T09:21:29Z</time>
      </trkpt>
      <trkpt lat="42.71835" lon="0.67131">
        <ele>1787.71</ele>
        <time>2015-11-11T09:21:45Z</time>
      </trkpt>
      <trkpt lat="42.71832" lon="0.67144">
        <ele>1789.15</ele>
        <time>2015-11-11T09:21:56Z</time>
      </trkpt>
      <trkpt lat="42.71828" lon="0.67162">
        <ele>1791.07</ele>
        <time>2015-11-11T09:22:14Z</time>
      </trkpt>
      <trkpt lat="42.71824" lon="0.67179">
        <ele>1793</ele>
        <time>2015-11-11T09:22:30Z</time>
      </trkpt>
      <trkpt lat="42.71823" lon="0.6718">
        <ele>1793.48</ele>
        <time>2015-11-11T09:22:46Z</time>
      </trkpt>
      <trkpt lat="42.71818" lon="0.67192">
        <ele>1793.48</ele>
        <time>2015-11-11T09:22:58Z</time>
      </trkpt>
      <trkpt lat="42.71817" lon="0.67197">
        <ele>1793.96</ele>
        <time>2015-11-11T09:23:12Z</time>
      </trkpt>
      <trkpt lat="42.71816" lon="0.67198">
        <ele>1794.44</ele>
        <time>2015-11-11T09:23:22Z</time>
      </trkpt>
      <trkpt lat="42.71815" lon="0.67201">
        <ele>1794.44</ele>
        <time>2015-11-11T09:23:25Z</time>
      </trkpt>
      <trkpt lat="42.71813" lon="0.67205">
        <ele>1794.44</ele>
        <time>2015-11-11T09:23:28Z</time>
      </trkpt>
      <trkpt lat="42.71808" lon="0.67225">
        <ele>1794.92</ele>
        <time>2015-11-11T09:23:42Z</time>
      </trkpt>
      <trkpt lat="42.71802" lon="0.67241">
        <ele>1796.36</ele>
        <time>2015-11-11T09:23:53Z</time>
      </trkpt>
      <trkpt lat="42.71799" lon="0.67246">
        <ele>1796.84</ele>
        <time>2015-11-11T09:24:05Z</time>
      </trkpt>
      <trkpt lat="42.71797" lon="0.6726">
        <ele>1797.32</ele>
        <time>2015-11-11T09:24:15Z</time>
      </trkpt>
      <trkpt lat="42.71795" lon="0.67264">
        <ele>1797.8</ele>
        <time>2015-11-11T09:24:19Z</time>
      </trkpt>
      <trkpt lat="42.71786" lon="0.67281">
        <ele>1799.24</ele>
        <time>2015-11-11T09:24:33Z</time>
      </trkpt>
      <trkpt lat="42.71782" lon="0.6729">
        <ele>1801.17</ele>
        <time>2015-11-11T09:24:43Z</time>
      </trkpt>
      <trkpt lat="42.7178" lon="0.67301">
        <ele>1802.61</ele>
        <time>2015-11-11T09:24:53Z</time>
      </trkpt>
      <trkpt lat="42.71781" lon="0.67303">
        <ele>1802.61</ele>
        <time>2015-11-11T09:24:55Z</time>
      </trkpt>
      <trkpt lat="42.71781" lon="0.67306">
        <ele>1803.09</ele>
        <time>2015-11-11T09:24:57Z</time>
      </trkpt>
      <trkpt lat="42.7178" lon="0.67314">
        <ele>1804.05</ele>
        <time>2015-11-11T09:25:05Z</time>
      </trkpt>
      <trkpt lat="42.71778" lon="0.67327">
        <ele>1805.97</ele>
        <time>2015-11-11T09:25:18Z</time>
      </trkpt>
      <trkpt lat="42.71772" lon="0.67337">
        <ele>1807.9</ele>
        <time>2015-11-11T09:25:31Z</time>
      </trkpt>
      <trkpt lat="42.7177" lon="0.67343">
        <ele>1808.86</ele>
        <time>2015-11-11T09:25:39Z</time>
      </trkpt>
      <trkpt lat="42.71766" lon="0.67351">
        <ele>1810.78</ele>
        <time>2015-11-11T09:25:49Z</time>
      </trkpt>
      <trkpt lat="42.71761" lon="0.67362">
        <ele>1812.22</ele>
        <time>2015-11-11T09:26:06Z</time>
      </trkpt>
      <trkpt lat="42.71755" lon="0.67375">
        <ele>1814.15</ele>
        <time>2015-11-11T09:26:23Z</time>
      </trkpt>
      <trkpt lat="42.71748" lon="0.67387">
        <ele>1816.55</ele>
        <time>2015-11-11T09:26:40Z</time>
      </trkpt>
      <trkpt lat="42.71742" lon="0.67396">
        <ele>1817.99</ele>
        <time>2015-11-11T09:26:54Z</time>
      </trkpt>
      <trkpt lat="42.71736" lon="0.67407">
        <ele>1819.91</ele>
        <time>2015-11-11T09:27:09Z</time>
      </trkpt>
      <trkpt lat="42.71732" lon="0.67421">
        <ele>1821.84</ele>
        <time>2015-11-11T09:27:24Z</time>
      </trkpt>
      <trkpt lat="42.71726" lon="0.67435">
        <ele>1823.76</ele>
        <time>2015-11-11T09:27:40Z</time>
      </trkpt>
      <trkpt lat="42.71724" lon="0.67438">
        <ele>1824.24</ele>
        <time>2015-11-11T09:27:43Z</time>
      </trkpt>
      <trkpt lat="42.71718" lon="0.67448">
        <ele>1825.68</ele>
        <time>2015-11-11T09:27:55Z</time>
      </trkpt>
      <trkpt lat="42.71712" lon="0.67462">
        <ele>1827.12</ele>
        <time>2015-11-11T09:28:08Z</time>
      </trkpt>
      <trkpt lat="42.71707" lon="0.67475">
        <ele>1828.56</ele>
        <time>2015-11-11T09:28:22Z</time>
      </trkpt>
      <trkpt lat="42.717" lon="0.67486">
        <ele>1830.01</ele>
        <time>2015-11-11T09:28:34Z</time>
      </trkpt>
      <trkpt lat="42.7169" lon="0.67494">
        <ele>1831.93</ele>
        <time>2015-11-11T09:28:48Z</time>
      </trkpt>
      <trkpt lat="42.7168" lon="0.67502">
        <ele>1833.85</ele>
        <time>2015-11-11T09:29:04Z</time>
      </trkpt>
      <trkpt lat="42.71671" lon="0.67505">
        <ele>1836.26</ele>
        <time>2015-11-11T09:29:18Z</time>
      </trkpt>
      <trkpt lat="42.71661" lon="0.67509">
        <ele>1838.66</ele>
        <time>2015-11-11T09:29:34Z</time>
      </trkpt>
      <trkpt lat="42.71655" lon="0.67519">
        <ele>1841.06</ele>
        <time>2015-11-11T09:29:50Z</time>
      </trkpt>
      <trkpt lat="42.7165" lon="0.6753">
        <ele>1842.98</ele>
        <time>2015-11-11T09:30:03Z</time>
      </trkpt>
      <trkpt lat="42.71646" lon="0.67539">
        <ele>1844.43</ele>
        <time>2015-11-11T09:30:16Z</time>
      </trkpt>
      <trkpt lat="42.71641" lon="0.67551">
        <ele>1845.87</ele>
        <time>2015-11-11T09:30:28Z</time>
      </trkpt>
      <trkpt lat="42.71636" lon="0.67563">
        <ele>1847.79</ele>
        <time>2015-11-11T09:30:42Z</time>
      </trkpt>
      <trkpt lat="42.71631" lon="0.67571">
        <ele>1849.23</ele>
        <time>2015-11-11T09:30:52Z</time>
      </trkpt>
      <trkpt lat="42.71631" lon="0.67572">
        <ele>1849.23</ele>
        <time>2015-11-11T09:30:53Z</time>
      </trkpt>
      <trkpt lat="42.71629" lon="0.67574">
        <ele>1849.71</ele>
        <time>2015-11-11T09:30:55Z</time>
      </trkpt>
      <trkpt lat="42.71624" lon="0.67587">
        <ele>1851.64</ele>
        <time>2015-11-11T09:31:09Z</time>
      </trkpt>
      <trkpt lat="42.71615" lon="0.67595">
        <ele>1853.56</ele>
        <time>2015-11-11T09:31:23Z</time>
      </trkpt>
      <trkpt lat="42.71613" lon="0.67599">
        <ele>1854.04</ele>
        <time>2015-11-11T09:31:27Z</time>
      </trkpt>
      <trkpt lat="42.71604" lon="0.67609">
        <ele>1855.48</ele>
        <time>2015-11-11T09:31:42Z</time>
      </trkpt>
      <trkpt lat="42.71598" lon="0.67619">
        <ele>1857.4</ele>
        <time>2015-11-11T09:31:54Z</time>
      </trkpt>
      <trkpt lat="42.7159" lon="0.67632">
        <ele>1859.33</ele>
        <time>2015-11-11T09:32:10Z</time>
      </trkpt>
      <trkpt lat="42.71584" lon="0.67646">
        <ele>1860.29</ele>
        <time>2015-11-11T09:32:24Z</time>
      </trkpt>
      <trkpt lat="42.71576" lon="0.67664">
        <ele>1863.17</ele>
        <time>2015-11-11T09:32:43Z</time>
      </trkpt>
      <trkpt lat="42.71572" lon="0.6768">
        <ele>1864.61</ele>
        <time>2015-11-11T09:32:59Z</time>
      </trkpt>
      <trkpt lat="42.71567" lon="0.67696">
        <ele>1866.54</ele>
        <time>2015-11-11T09:33:14Z</time>
      </trkpt>
      <trkpt lat="42.71562" lon="0.67712">
        <ele>1867.98</ele>
        <time>2015-11-11T09:33:29Z</time>
      </trkpt>
      <trkpt lat="42.71561" lon="0.67716">
        <ele>1867.98</ele>
        <time>2015-11-11T09:33:32Z</time>
      </trkpt>
      <trkpt lat="42.71561" lon="0.67721">
        <ele>1868.94</ele>
        <time>2015-11-11T09:33:37Z</time>
      </trkpt>
      <trkpt lat="42.71556" lon="0.67736">
        <ele>1870.86</ele>
        <time>2015-11-11T09:33:52Z</time>
      </trkpt>
      <trkpt lat="42.71552" lon="0.67754">
        <ele>1872.3</ele>
        <time>2015-11-11T09:34:09Z</time>
      </trkpt>
      <trkpt lat="42.71546" lon="0.6777">
        <ele>1874.23</ele>
        <time>2015-11-11T09:34:24Z</time>
      </trkpt>
      <trkpt lat="42.71545" lon="0.67781">
        <ele>1875.19</ele>
        <time>2015-11-11T09:34:36Z</time>
      </trkpt>
      <trkpt lat="42.71537" lon="0.67792">
        <ele>1876.63</ele>
        <time>2015-11-11T09:34:50Z</time>
      </trkpt>
      <trkpt lat="42.71525" lon="0.67801">
        <ele>1878.55</ele>
        <time>2015-11-11T09:35:04Z</time>
      </trkpt>
      <trkpt lat="42.71514" lon="0.67808">
        <ele>1880</ele>
        <time>2015-11-11T09:35:19Z</time>
      </trkpt>
      <trkpt lat="42.71506" lon="0.67814">
        <ele>1881.92</ele>
        <time>2015-11-11T09:35:33Z</time>
      </trkpt>
      <trkpt lat="42.71503" lon="0.67822">
        <ele>1883.84</ele>
        <time>2015-11-11T09:35:47Z</time>
      </trkpt>
      <trkpt lat="42.71496" lon="0.67829">
        <ele>1884.32</ele>
        <time>2015-11-11T09:35:59Z</time>
      </trkpt>
      <trkpt lat="42.71493" lon="0.6784">
        <ele>1885.76</ele>
        <time>2015-11-11T09:36:12Z</time>
      </trkpt>
      <trkpt lat="42.71489" lon="0.6785">
        <ele>1888.65</ele>
        <time>2015-11-11T09:36:27Z</time>
      </trkpt>
      <trkpt lat="42.71486" lon="0.67862">
        <ele>1891.05</ele>
        <time>2015-11-11T09:36:41Z</time>
      </trkpt>
      <trkpt lat="42.71484" lon="0.6787">
        <ele>1892.49</ele>
        <time>2015-11-11T09:36:55Z</time>
      </trkpt>
      <trkpt lat="42.71481" lon="0.67879">
        <ele>1894.42</ele>
        <time>2015-11-11T09:37:09Z</time>
      </trkpt>
      <trkpt lat="42.71476" lon="0.67887">
        <ele>1896.34</ele>
        <time>2015-11-11T09:37:24Z</time>
      </trkpt>
      <trkpt lat="42.71472" lon="0.67891">
        <ele>1897.3</ele>
        <time>2015-11-11T09:37:38Z</time>
      </trkpt>
      <trkpt lat="42.71472" lon="0.67891">
        <ele>1897.3</ele>
        <time>2015-11-11T09:37:57Z</time>
      </trkpt>
      <trkpt lat="42.71472" lon="0.67891">
        <ele>1896.82</ele>
        <time>2015-11-11T09:38:15Z</time>
      </trkpt>
      <trkpt lat="42.71472" lon="0.67891">
        <ele>1898.26</ele>
        <time>2015-11-11T09:38:32Z</time>
      </trkpt>
      <trkpt lat="42.71471" lon="0.67892">
        <ele>1898.26</ele>
        <time>2015-11-11T09:38:51Z</time>
      </trkpt>
      <trkpt lat="42.71472" lon="0.67893">
        <ele>1896.82</ele>
        <time>2015-11-11T09:39:05Z</time>
      </trkpt>
      <trkpt lat="42.71471" lon="0.67894">
        <ele>1898.26</ele>
        <time>2015-11-11T09:39:08Z</time>
      </trkpt>
      <trkpt lat="42.71469" lon="0.67897">
        <ele>1898.26</ele>
        <time>2015-11-11T09:39:16Z</time>
      </trkpt>
      <trkpt lat="42.71465" lon="0.67903">
        <ele>1898.74</ele>
        <time>2015-11-11T09:39:24Z</time>
      </trkpt>
      <trkpt lat="42.71462" lon="0.67903">
        <ele>1900.18</ele>
        <time>2015-11-11T09:39:38Z</time>
      </trkpt>
      <trkpt lat="42.71461" lon="0.67904">
        <ele>1901.14</ele>
        <time>2015-11-11T09:40:00Z</time>
      </trkpt>
      <trkpt lat="42.71461" lon="0.67905">
        <ele>1901.14</ele>
        <time>2015-11-11T09:40:09Z</time>
      </trkpt>
      <trkpt lat="42.71462" lon="0.67909">
        <ele>1901.14</ele>
        <time>2015-11-11T09:40:25Z</time>
      </trkpt>
      <trkpt lat="42.71457" lon="0.67914">
        <ele>1902.59</ele>
        <time>2015-11-11T09:40:41Z</time>
      </trkpt>
      <trkpt lat="42.71461" lon="0.67922">
        <ele>1902.59</ele>
        <time>2015-11-11T09:40:58Z</time>
      </trkpt>
      <trkpt lat="42.71465" lon="0.67934">
        <ele>1903.55</ele>
        <time>2015-11-11T09:41:13Z</time>
      </trkpt>
      <trkpt lat="42.71463" lon="0.67946">
        <ele>1905.95</ele>
        <time>2015-11-11T09:41:31Z</time>
      </trkpt>
      <trkpt lat="42.7146" lon="0.67952">
        <ele>1908.35</ele>
        <time>2015-11-11T09:41:44Z</time>
      </trkpt>
      <trkpt lat="42.71456" lon="0.6795">
        <ele>1909.32</ele>
        <time>2015-11-11T09:41:57Z</time>
      </trkpt>
      <trkpt lat="42.71448" lon="0.67944">
        <ele>1910.76</ele>
        <time>2015-11-11T09:42:12Z</time>
      </trkpt>
      <trkpt lat="42.71449" lon="0.67955">
        <ele>1912.2</ele>
        <time>2015-11-11T09:42:25Z</time>
      </trkpt>
      <trkpt lat="42.7145" lon="0.67965">
        <ele>1913.64</ele>
        <time>2015-11-11T09:42:38Z</time>
      </trkpt>
      <trkpt lat="42.7145" lon="0.67976">
        <ele>1916.04</ele>
        <time>2015-11-11T09:42:56Z</time>
      </trkpt>
      <trkpt lat="42.71447" lon="0.67982">
        <ele>1917.01</ele>
        <time>2015-11-11T09:43:12Z</time>
      </trkpt>
      <trkpt lat="42.71444" lon="0.67985">
        <ele>1919.89</ele>
        <time>2015-11-11T09:43:29Z</time>
      </trkpt>
      <trkpt lat="42.71442" lon="0.67994">
        <ele>1921.81</ele>
        <time>2015-11-11T09:43:46Z</time>
      </trkpt>
      <trkpt lat="42.7144" lon="0.68003">
        <ele>1924.22</ele>
        <time>2015-11-11T09:44:03Z</time>
      </trkpt>
      <trkpt lat="42.71439" lon="0.68013">
        <ele>1926.14</ele>
        <time>2015-11-11T09:44:18Z</time>
      </trkpt>
      <trkpt lat="42.71439" lon="0.68023">
        <ele>1928.06</ele>
        <time>2015-11-11T09:44:31Z</time>
      </trkpt>
      <trkpt lat="42.7144" lon="0.68033">
        <ele>1930.46</ele>
        <time>2015-11-11T09:44:46Z</time>
      </trkpt>
      <trkpt lat="42.71438" lon="0.68044">
        <ele>1932.39</ele>
        <time>2015-11-11T09:45:02Z</time>
      </trkpt>
      <trkpt lat="42.71436" lon="0.68055">
        <ele>1934.31</ele>
        <time>2015-11-11T09:45:18Z</time>
      </trkpt>
      <trkpt lat="42.71433" lon="0.68066">
        <ele>1937.19</ele>
        <time>2015-11-11T09:45:33Z</time>
      </trkpt>
      <trkpt lat="42.71432" lon="0.68078">
        <ele>1939.12</ele>
        <time>2015-11-11T09:45:48Z</time>
      </trkpt>
      <trkpt lat="42.71431" lon="0.68087">
        <ele>1941.04</ele>
        <time>2015-11-11T09:46:01Z</time>
      </trkpt>
      <trkpt lat="42.71432" lon="0.68096">
        <ele>1942</ele>
        <time>2015-11-11T09:46:12Z</time>
      </trkpt>
      <trkpt lat="42.71437" lon="0.68107">
        <ele>1943.92</ele>
        <time>2015-11-11T09:46:26Z</time>
      </trkpt>
      <trkpt lat="42.71441" lon="0.68116">
        <ele>1945.85</ele>
        <time>2015-11-11T09:46:40Z</time>
      </trkpt>
      <trkpt lat="42.71444" lon="0.68127">
        <ele>1948.25</ele>
        <time>2015-11-11T09:46:56Z</time>
      </trkpt>
      <trkpt lat="42.71445" lon="0.68136">
        <ele>1950.17</ele>
        <time>2015-11-11T09:47:10Z</time>
      </trkpt>
      <trkpt lat="42.71441" lon="0.68139">
        <ele>1951.13</ele>
        <time>2015-11-11T09:47:23Z</time>
      </trkpt>
      <trkpt lat="42.71448" lon="0.6814">
        <ele>1951.13</ele>
        <time>2015-11-11T09:47:43Z</time>
      </trkpt>
      <trkpt lat="42.7145" lon="0.68138">
        <ele>1951.61</ele>
        <time>2015-11-11T09:47:57Z</time>
      </trkpt>
      <trkpt lat="42.71449" lon="0.68139">
        <ele>1951.61</ele>
        <time>2015-11-11T09:48:12Z</time>
      </trkpt>
      <trkpt lat="42.7145" lon="0.68138">
        <ele>1951.61</ele>
        <time>2015-11-11T09:48:37Z</time>
      </trkpt>
      <trkpt lat="42.71451" lon="0.68138">
        <ele>1951.61</ele>
        <time>2015-11-11T09:49:00Z</time>
      </trkpt>
      <trkpt lat="42.7145" lon="0.68138">
        <ele>1952.09</ele>
        <time>2015-11-11T09:49:30Z</time>
      </trkpt>
      <trkpt lat="42.7145" lon="0.68138">
        <ele>1952.09</ele>
        <time>2015-11-11T09:49:55Z</time>
      </trkpt>
      <trkpt lat="42.7145" lon="0.68136">
        <ele>1952.09</ele>
        <time>2015-11-11T09:50:23Z</time>
      </trkpt>
      <trkpt lat="42.7145" lon="0.68136">
        <ele>1952.09</ele>
        <time>2015-11-11T09:50:54Z</time>
      </trkpt>
      <trkpt lat="42.71449" lon="0.68136">
        <ele>1952.57</ele>
        <time>2015-11-11T09:51:23Z</time>
      </trkpt>
      <trkpt lat="42.7145" lon="0.68138">
        <ele>1952.57</ele>
        <time>2015-11-11T09:52:00Z</time>
      </trkpt>
      <trkpt lat="42.71449" lon="0.68137">
        <ele>1951.61</ele>
        <time>2015-11-11T09:52:25Z</time>
      </trkpt>
      <trkpt lat="42.7145" lon="0.68135">
        <ele>1952.57</ele>
        <time>2015-11-11T09:52:53Z</time>
      </trkpt>
      <trkpt lat="42.7145" lon="0.68139">
        <ele>1953.06</ele>
        <time>2015-11-11T09:53:09Z</time>
      </trkpt>
      <trkpt lat="42.7145" lon="0.68144">
        <ele>1953.54</ele>
        <time>2015-11-11T09:53:16Z</time>
      </trkpt>
      <trkpt lat="42.71447" lon="0.68165">
        <ele>1953.54</ele>
        <time>2015-11-11T09:53:32Z</time>
      </trkpt>
      <trkpt lat="42.71446" lon="0.68168">
        <ele>1953.54</ele>
        <time>2015-11-11T09:53:34Z</time>
      </trkpt>
      <trkpt lat="42.71446" lon="0.68175">
        <ele>1953.54</ele>
        <time>2015-11-11T09:53:39Z</time>
      </trkpt>
      <trkpt lat="42.71443" lon="0.68192">
        <ele>1953.54</ele>
        <time>2015-11-11T09:53:51Z</time>
      </trkpt>
      <trkpt lat="42.71443" lon="0.68196">
        <ele>1953.54</ele>
        <time>2015-11-11T09:53:54Z</time>
      </trkpt>
      <trkpt lat="42.71442" lon="0.68206">
        <ele>1953.54</ele>
        <time>2015-11-11T09:54:00Z</time>
      </trkpt>
      <trkpt lat="42.71436" lon="0.68232">
        <ele>1954.5</ele>
        <time>2015-11-11T09:54:18Z</time>
      </trkpt>
      <trkpt lat="42.71431" lon="0.68256">
        <ele>1956.42</ele>
        <time>2015-11-11T09:54:36Z</time>
      </trkpt>
      <trkpt lat="42.71429" lon="0.68276">
        <ele>1957.38</ele>
        <time>2015-11-11T09:54:52Z</time>
      </trkpt>
      <trkpt lat="42.71428" lon="0.68294">
        <ele>1958.82</ele>
        <time>2015-11-11T09:55:09Z</time>
      </trkpt>
      <trkpt lat="42.71428" lon="0.68309">
        <ele>1960.27</ele>
        <time>2015-11-11T09:55:23Z</time>
      </trkpt>
      <trkpt lat="42.71426" lon="0.68324">
        <ele>1962.19</ele>
        <time>2015-11-11T09:55:40Z</time>
      </trkpt>
      <trkpt lat="42.71424" lon="0.68339">
        <ele>1964.11</ele>
        <time>2015-11-11T09:55:55Z</time>
      </trkpt>
      <trkpt lat="42.71424" lon="0.68342">
        <ele>1965.07</ele>
        <time>2015-11-11T09:56:07Z</time>
      </trkpt>
      <trkpt lat="42.71422" lon="0.68347">
        <ele>1965.55</ele>
        <time>2015-11-11T09:56:32Z</time>
      </trkpt>
      <trkpt lat="42.7142" lon="0.68359">
        <ele>1965.55</ele>
        <time>2015-11-11T09:56:49Z</time>
      </trkpt>
      <trkpt lat="42.71416" lon="0.68377">
        <ele>1967.48</ele>
        <time>2015-11-11T09:57:04Z</time>
      </trkpt>
      <trkpt lat="42.71411" lon="0.68392">
        <ele>1969.88</ele>
        <time>2015-11-11T09:57:18Z</time>
      </trkpt>
      <trkpt lat="42.71404" lon="0.68409">
        <ele>1971.32</ele>
        <time>2015-11-11T09:57:33Z</time>
      </trkpt>
      <trkpt lat="42.71397" lon="0.68423">
        <ele>1973.24</ele>
        <time>2015-11-11T09:57:48Z</time>
      </trkpt>
      <trkpt lat="42.71388" lon="0.68438">
        <ele>1975.17</ele>
        <time>2015-11-11T09:58:03Z</time>
      </trkpt>
      <trkpt lat="42.71388" lon="0.6844">
        <ele>1975.65</ele>
        <time>2015-11-11T09:58:05Z</time>
      </trkpt>
      <trkpt lat="42.71381" lon="0.68453">
        <ele>1978.05</ele>
        <time>2015-11-11T09:58:20Z</time>
      </trkpt>
      <trkpt lat="42.71374" lon="0.68466">
        <ele>1980.45</ele>
        <time>2015-11-11T09:58:36Z</time>
      </trkpt>
      <trkpt lat="42.71369" lon="0.68477">
        <ele>1982.38</ele>
        <time>2015-11-11T09:58:51Z</time>
      </trkpt>
      <trkpt lat="42.7137" lon="0.68489">
        <ele>1984.3</ele>
        <time>2015-11-11T09:59:05Z</time>
      </trkpt>
      <trkpt lat="42.71362" lon="0.68494">
        <ele>1985.74</ele>
        <time>2015-11-11T09:59:21Z</time>
      </trkpt>
      <trkpt lat="42.71355" lon="0.68498">
        <ele>1988.14</ele>
        <time>2015-11-11T09:59:34Z</time>
      </trkpt>
      <trkpt lat="42.71349" lon="0.68509">
        <ele>1990.07</ele>
        <time>2015-11-11T09:59:49Z</time>
      </trkpt>
      <trkpt lat="42.71341" lon="0.68524">
        <ele>1991.51</ele>
        <time>2015-11-11T10:00:06Z</time>
      </trkpt>
      <trkpt lat="42.7134" lon="0.68542">
        <ele>1992.95</ele>
        <time>2015-11-11T10:00:22Z</time>
      </trkpt>
      <trkpt lat="42.71335" lon="0.68553">
        <ele>1994.39</ele>
        <time>2015-11-11T10:00:37Z</time>
      </trkpt>
      <trkpt lat="42.71336" lon="0.68565">
        <ele>1996.32</ele>
        <time>2015-11-11T10:00:51Z</time>
      </trkpt>
      <trkpt lat="42.71333" lon="0.68574">
        <ele>1998.24</ele>
        <time>2015-11-11T10:01:06Z</time>
      </trkpt>
      <trkpt lat="42.71328" lon="0.68585">
        <ele>2000.64</ele>
        <time>2015-11-11T10:01:21Z</time>
      </trkpt>
      <trkpt lat="42.71319" lon="0.68592">
        <ele>2002.56</ele>
        <time>2015-11-11T10:01:37Z</time>
      </trkpt>
      <trkpt lat="42.71315" lon="0.68603">
        <ele>2004.49</ele>
        <time>2015-11-11T10:01:51Z</time>
      </trkpt>
      <trkpt lat="42.71318" lon="0.68618">
        <ele>2006.41</ele>
        <time>2015-11-11T10:02:04Z</time>
      </trkpt>
      <trkpt lat="42.71319" lon="0.68625">
        <ele>2006.89</ele>
        <time>2015-11-11T10:02:10Z</time>
      </trkpt>
      <trkpt lat="42.71317" lon="0.68648">
        <ele>2008.33</ele>
        <time>2015-11-11T10:02:28Z</time>
      </trkpt>
      <trkpt lat="42.71318" lon="0.68652">
        <ele>2008.81</ele>
        <time>2015-11-11T10:02:43Z</time>
      </trkpt>
      <trkpt lat="42.71316" lon="0.68654">
        <ele>2009.29</ele>
        <time>2015-11-11T10:03:04Z</time>
      </trkpt>
      <trkpt lat="42.71316" lon="0.68654">
        <ele>2009.29</ele>
        <time>2015-11-11T10:03:24Z</time>
      </trkpt>
      <trkpt lat="42.71316" lon="0.68654">
        <ele>2009.29</ele>
        <time>2015-11-11T10:03:48Z</time>
      </trkpt>
      <trkpt lat="42.71315" lon="0.68654">
        <ele>2009.29</ele>
        <time>2015-11-11T10:04:13Z</time>
      </trkpt>
      <trkpt lat="42.71314" lon="0.68664">
        <ele>2009.77</ele>
        <time>2015-11-11T10:04:26Z</time>
      </trkpt>
      <trkpt lat="42.71314" lon="0.68671">
        <ele>2009.77</ele>
        <time>2015-11-11T10:04:31Z</time>
      </trkpt>
      <trkpt lat="42.71316" lon="0.68699">
        <ele>2010.73</ele>
        <time>2015-11-11T10:04:52Z</time>
      </trkpt>
      <trkpt lat="42.71318" lon="0.68713">
        <ele>2011.7</ele>
        <time>2015-11-11T10:05:06Z</time>
      </trkpt>
      <trkpt lat="42.71318" lon="0.68718">
        <ele>2012.18</ele>
        <time>2015-11-11T10:05:10Z</time>
      </trkpt>
      <trkpt lat="42.71317" lon="0.68737">
        <ele>2013.14</ele>
        <time>2015-11-11T10:05:26Z</time>
      </trkpt>
      <trkpt lat="42.71319" lon="0.68743">
        <ele>2014.58</ele>
        <time>2015-11-11T10:05:41Z</time>
      </trkpt>
      <trkpt lat="42.71321" lon="0.68751">
        <ele>2016.02</ele>
        <time>2015-11-11T10:05:58Z</time>
      </trkpt>
      <trkpt lat="42.71321" lon="0.68752">
        <ele>2016.02</ele>
        <time>2015-11-11T10:06:14Z</time>
      </trkpt>
      <trkpt lat="42.71321" lon="0.68754">
        <ele>2016.5</ele>
        <time>2015-11-11T10:06:38Z</time>
      </trkpt>
      <trkpt lat="42.71325" lon="0.68767">
        <ele>2018.91</ele>
        <time>2015-11-11T10:06:52Z</time>
      </trkpt>
      <trkpt lat="42.71326" lon="0.68782">
        <ele>2021.31</ele>
        <time>2015-11-11T10:07:07Z</time>
      </trkpt>
      <trkpt lat="42.71327" lon="0.68797">
        <ele>2024.19</ele>
        <time>2015-11-11T10:07:24Z</time>
      </trkpt>
      <trkpt lat="42.71329" lon="0.68807">
        <ele>2027.08</ele>
        <time>2015-11-11T10:07:37Z</time>
      </trkpt>
      <trkpt lat="42.71329" lon="0.68819">
        <ele>2029.48</ele>
        <time>2015-11-11T10:07:52Z</time>
      </trkpt>
      <trkpt lat="42.71329" lon="0.68835">
        <ele>2032.36</ele>
        <time>2015-11-11T10:08:10Z</time>
      </trkpt>
      <trkpt lat="42.71331" lon="0.68846">
        <ele>2034.29</ele>
        <time>2015-11-11T10:08:25Z</time>
      </trkpt>
      <trkpt lat="42.71334" lon="0.68856">
        <ele>2036.21</ele>
        <time>2015-11-11T10:08:40Z</time>
      </trkpt>
      <trkpt lat="42.71334" lon="0.68871">
        <ele>2038.61</ele>
        <time>2015-11-11T10:08:57Z</time>
      </trkpt>
      <trkpt lat="42.71337" lon="0.68876">
        <ele>2039.09</ele>
        <time>2015-11-11T10:09:10Z</time>
      </trkpt>
      <trkpt lat="42.71339" lon="0.68882">
        <ele>2039.57</ele>
        <time>2015-11-11T10:09:17Z</time>
      </trkpt>
      <trkpt lat="42.71344" lon="0.68889">
        <ele>2040.05</ele>
        <time>2015-11-11T10:09:32Z</time>
      </trkpt>
      <trkpt lat="42.71339" lon="0.68892">
        <ele>2040.05</ele>
        <time>2015-11-11T10:09:43Z</time>
      </trkpt>
      <trkpt lat="42.71332" lon="0.68904">
        <ele>2042.46</ele>
        <time>2015-11-11T10:09:58Z</time>
      </trkpt>
      <trkpt lat="42.71326" lon="0.68917">
        <ele>2044.86</ele>
        <time>2015-11-11T10:10:13Z</time>
      </trkpt>
      <trkpt lat="42.71318" lon="0.68923">
        <ele>2047.26</ele>
        <time>2015-11-11T10:10:27Z</time>
      </trkpt>
      <trkpt lat="42.71314" lon="0.68931">
        <ele>2049.67</ele>
        <time>2015-11-11T10:10:44Z</time>
      </trkpt>
      <trkpt lat="42.7131" lon="0.68939">
        <ele>2052.07</ele>
        <time>2015-11-11T10:10:59Z</time>
      </trkpt>
      <trkpt lat="42.71304" lon="0.68948">
        <ele>2054.96</ele>
        <time>2015-11-11T10:11:15Z</time>
      </trkpt>
      <trkpt lat="42.71301" lon="0.68957">
        <ele>2056.88</ele>
        <time>2015-11-11T10:11:30Z</time>
      </trkpt>
      <trkpt lat="42.71297" lon="0.6897">
        <ele>2058.32</ele>
        <time>2015-11-11T10:11:46Z</time>
      </trkpt>
      <trkpt lat="42.71306" lon="0.68976">
        <ele>2060.24</ele>
        <time>2015-11-11T10:12:00Z</time>
      </trkpt>
      <trkpt lat="42.7131" lon="0.68984">
        <ele>2062.17</ele>
        <time>2015-11-11T10:12:13Z</time>
      </trkpt>
      <trkpt lat="42.71311" lon="0.68991">
        <ele>2063.13</ele>
        <time>2015-11-11T10:12:29Z</time>
      </trkpt>
      <trkpt lat="42.7131" lon="0.69002">
        <ele>2065.53</ele>
        <time>2015-11-11T10:12:45Z</time>
      </trkpt>
      <trkpt lat="42.71313" lon="0.69012">
        <ele>2067.93</ele>
        <time>2015-11-11T10:13:00Z</time>
      </trkpt>
      <trkpt lat="42.71314" lon="0.69017">
        <ele>2069.86</ele>
        <time>2015-11-11T10:13:13Z</time>
      </trkpt>
      <trkpt lat="42.71316" lon="0.69019">
        <ele>2070.82</ele>
        <time>2015-11-11T10:13:30Z</time>
      </trkpt>
      <trkpt lat="42.71316" lon="0.69021">
        <ele>2071.3</ele>
        <time>2015-11-11T10:13:57Z</time>
      </trkpt>
      <trkpt lat="42.71316" lon="0.69021">
        <ele>2071.3</ele>
        <time>2015-11-11T10:14:17Z</time>
      </trkpt>
      <trkpt lat="42.71316" lon="0.69019">
        <ele>2071.78</ele>
        <time>2015-11-11T10:14:39Z</time>
      </trkpt>
      <trkpt lat="42.7132" lon="0.69024">
        <ele>2073.22</ele>
        <time>2015-11-11T10:15:01Z</time>
      </trkpt>
      <trkpt lat="42.71325" lon="0.69027">
        <ele>2074.66</ele>
        <time>2015-11-11T10:15:17Z</time>
      </trkpt>
      <trkpt lat="42.71324" lon="0.69029">
        <ele>2074.66</ele>
        <time>2015-11-11T10:15:33Z</time>
      </trkpt>
      <trkpt lat="42.71326" lon="0.69036">
        <ele>2075.62</ele>
        <time>2015-11-11T10:15:49Z</time>
      </trkpt>
      <trkpt lat="42.71333" lon="0.69047">
        <ele>2078.99</ele>
        <time>2015-11-11T10:16:06Z</time>
      </trkpt>
      <trkpt lat="42.71335" lon="0.69058">
        <ele>2080.91</ele>
        <time>2015-11-11T10:16:20Z</time>
      </trkpt>
      <trkpt lat="42.71337" lon="0.69068">
        <ele>2082.83</ele>
        <time>2015-11-11T10:16:34Z</time>
      </trkpt>
      <trkpt lat="42.71337" lon="0.69079">
        <ele>2085.24</ele>
        <time>2015-11-11T10:16:48Z</time>
      </trkpt>
      <trkpt lat="42.71339" lon="0.69088">
        <ele>2087.16</ele>
        <time>2015-11-11T10:17:02Z</time>
      </trkpt>
      <trkpt lat="42.71342" lon="0.69096">
        <ele>2088.6</ele>
        <time>2015-11-11T10:17:18Z</time>
      </trkpt>
      <trkpt lat="42.71343" lon="0.691">
        <ele>2089.56</ele>
        <time>2015-11-11T10:17:34Z</time>
      </trkpt>
      <trkpt lat="42.71346" lon="0.69111">
        <ele>2091.97</ele>
        <time>2015-11-11T10:17:47Z</time>
      </trkpt>
      <trkpt lat="42.7135" lon="0.69121">
        <ele>2094.85</ele>
        <time>2015-11-11T10:18:03Z</time>
      </trkpt>
      <trkpt lat="42.71354" lon="0.69126">
        <ele>2096.29</ele>
        <time>2015-11-11T10:18:21Z</time>
      </trkpt>
      <trkpt lat="42.71354" lon="0.69126">
        <ele>2097.25</ele>
        <time>2015-11-11T10:18:38Z</time>
      </trkpt>
      <trkpt lat="42.71358" lon="0.69135">
        <ele>2098.7</ele>
        <time>2015-11-11T10:18:53Z</time>
      </trkpt>
      <trkpt lat="42.71363" lon="0.69148">
        <ele>2101.58</ele>
        <time>2015-11-11T10:19:09Z</time>
      </trkpt>
      <trkpt lat="42.71369" lon="0.69157">
        <ele>2103.98</ele>
        <time>2015-11-11T10:19:23Z</time>
      </trkpt>
      <trkpt lat="42.71369" lon="0.6916">
        <ele>2105.91</ele>
        <time>2015-11-11T10:19:36Z</time>
      </trkpt>
      <trkpt lat="42.71368" lon="0.69159">
        <ele>2105.91</ele>
        <time>2015-11-11T10:19:56Z</time>
      </trkpt>
      <trkpt lat="42.71368" lon="0.69161">
        <ele>2105.91</ele>
        <time>2015-11-11T10:20:15Z</time>
      </trkpt>
      <trkpt lat="42.71367" lon="0.69161">
        <ele>2105.91</ele>
        <time>2015-11-11T10:20:37Z</time>
      </trkpt>
      <trkpt lat="42.71366" lon="0.69161">
        <ele>2105.91</ele>
        <time>2015-11-11T10:20:57Z</time>
      </trkpt>
      <trkpt lat="42.71366" lon="0.69162">
        <ele>2106.39</ele>
        <time>2015-11-11T10:21:10Z</time>
      </trkpt>
      <trkpt lat="42.71366" lon="0.69163">
        <ele>2106.87</ele>
        <time>2015-11-11T10:21:28Z</time>
      </trkpt>
      <trkpt lat="42.71365" lon="0.69163">
        <ele>2106.87</ele>
        <time>2015-11-11T10:22:03Z</time>
      </trkpt>
      <trkpt lat="42.71365" lon="0.69163">
        <ele>2106.87</ele>
        <time>2015-11-11T10:22:37Z</time>
      </trkpt>
      <trkpt lat="42.71366" lon="0.69163">
        <ele>2107.35</ele>
        <time>2015-11-11T10:23:08Z</time>
      </trkpt>
      <trkpt lat="42.71366" lon="0.69162">
        <ele>2107.83</ele>
        <time>2015-11-11T10:23:47Z</time>
      </trkpt>
      <trkpt lat="42.71364" lon="0.69162">
        <ele>2106.39</ele>
        <time>2015-11-11T10:24:21Z</time>
      </trkpt>
      <trkpt lat="42.71364" lon="0.69164">
        <ele>2107.83</ele>
        <time>2015-11-11T10:25:00Z</time>
      </trkpt>
      <trkpt lat="42.71366" lon="0.69164">
        <ele>2106.87</ele>
        <time>2015-11-11T10:25:29Z</time>
      </trkpt>
      <trkpt lat="42.7137" lon="0.69165">
        <ele>2106.87</ele>
        <time>2015-11-11T10:25:34Z</time>
      </trkpt>
      <trkpt lat="42.71375" lon="0.69168">
        <ele>2108.79</ele>
        <time>2015-11-11T10:25:39Z</time>
      </trkpt>
      <trkpt lat="42.71377" lon="0.69171">
        <ele>2108.79</ele>
        <time>2015-11-11T10:25:42Z</time>
      </trkpt>
      <trkpt lat="42.7138" lon="0.69175">
        <ele>2109.75</ele>
        <time>2015-11-11T10:25:48Z</time>
      </trkpt>
      <trkpt lat="42.71393" lon="0.69186">
        <ele>2111.67</ele>
        <time>2015-11-11T10:26:04Z</time>
      </trkpt>
      <trkpt lat="42.71402" lon="0.69199">
        <ele>2114.08</ele>
        <time>2015-11-11T10:26:19Z</time>
      </trkpt>
      <trkpt lat="42.71404" lon="0.69205">
        <ele>2115.04</ele>
        <time>2015-11-11T10:26:25Z</time>
      </trkpt>
      <trkpt lat="42.71407" lon="0.69214">
        <ele>2116</ele>
        <time>2015-11-11T10:26:33Z</time>
      </trkpt>
      <trkpt lat="42.71412" lon="0.69228">
        <ele>2117.92</ele>
        <time>2015-11-11T10:26:47Z</time>
      </trkpt>
      <trkpt lat="42.7142" lon="0.69242">
        <ele>2119.36</ele>
        <time>2015-11-11T10:27:02Z</time>
      </trkpt>
      <trkpt lat="42.71422" lon="0.69245">
        <ele>2119.84</ele>
        <time>2015-11-11T10:27:06Z</time>
      </trkpt>
      <trkpt lat="42.71431" lon="0.69257">
        <ele>2121.29</ele>
        <time>2015-11-11T10:27:22Z</time>
      </trkpt>
      <trkpt lat="42.71434" lon="0.69261">
        <ele>2122.73</ele>
        <time>2015-11-11T10:27:38Z</time>
      </trkpt>
      <trkpt lat="42.71434" lon="0.69261">
        <ele>2123.21</ele>
        <time>2015-11-11T10:27:59Z</time>
      </trkpt>
      <trkpt lat="42.71434" lon="0.69263">
        <ele>2123.21</ele>
        <time>2015-11-11T10:28:02Z</time>
      </trkpt>
      <trkpt lat="42.7144" lon="0.6927">
        <ele>2123.21</ele>
        <time>2015-11-11T10:28:20Z</time>
      </trkpt>
      <trkpt lat="42.71451" lon="0.69278">
        <ele>2123.21</ele>
        <time>2015-11-11T10:28:35Z</time>
      </trkpt>
      <trkpt lat="42.71454" lon="0.6928">
        <ele>2121.77</ele>
        <time>2015-11-11T10:28:39Z</time>
      </trkpt>
      <trkpt lat="42.71457" lon="0.69284">
        <ele>2121.77</ele>
        <time>2015-11-11T10:28:46Z</time>
      </trkpt>
      <trkpt lat="42.71459" lon="0.69287">
        <ele>2121.77</ele>
        <time>2015-11-11T10:28:48Z</time>
      </trkpt>
      <trkpt lat="42.71474" lon="0.69295">
        <ele>2122.25</ele>
        <time>2015-11-11T10:29:05Z</time>
      </trkpt>
      <trkpt lat="42.71477" lon="0.69297">
        <ele>2124.17</ele>
        <time>2015-11-11T10:29:09Z</time>
      </trkpt>
      <trkpt lat="42.7149" lon="0.69308">
        <ele>2125.13</ele>
        <time>2015-11-11T10:29:25Z</time>
      </trkpt>
      <trkpt lat="42.71501" lon="0.69316">
        <ele>2126.09</ele>
        <time>2015-11-11T10:29:38Z</time>
      </trkpt>
      <trkpt lat="42.71514" lon="0.69327">
        <ele>2127.53</ele>
        <time>2015-11-11T10:29:53Z</time>
      </trkpt>
      <trkpt lat="42.71527" lon="0.69344">
        <ele>2128.5</ele>
        <time>2015-11-11T10:30:10Z</time>
      </trkpt>
      <trkpt lat="42.71527" lon="0.69348">
        <ele>2128.98</ele>
        <time>2015-11-11T10:30:23Z</time>
      </trkpt>
      <trkpt lat="42.71527" lon="0.69346">
        <ele>2128.98</ele>
        <time>2015-11-11T10:30:52Z</time>
      </trkpt>
      <trkpt lat="42.71528" lon="0.69344">
        <ele>2129.46</ele>
        <time>2015-11-11T10:31:17Z</time>
      </trkpt>
      <trkpt lat="42.71528" lon="0.69345">
        <ele>2129.46</ele>
        <time>2015-11-11T10:31:26Z</time>
      </trkpt>
      <trkpt lat="42.71529" lon="0.69351">
        <ele>2129.46</ele>
        <time>2015-11-11T10:31:42Z</time>
      </trkpt>
      <trkpt lat="42.71534" lon="0.69356">
        <ele>2129.94</ele>
        <time>2015-11-11T10:31:57Z</time>
      </trkpt>
      <trkpt lat="42.71537" lon="0.6936">
        <ele>2130.42</ele>
        <time>2015-11-11T10:32:01Z</time>
      </trkpt>
      <trkpt lat="42.71549" lon="0.69368">
        <ele>2131.86</ele>
        <time>2015-11-11T10:32:15Z</time>
      </trkpt>
      <trkpt lat="42.7156" lon="0.69381">
        <ele>2133.3</ele>
        <time>2015-11-11T10:32:30Z</time>
      </trkpt>
      <trkpt lat="42.7157" lon="0.69391">
        <ele>2136.19</ele>
        <time>2015-11-11T10:32:46Z</time>
      </trkpt>
      <trkpt lat="42.71576" lon="0.69399">
        <ele>2138.59</ele>
        <time>2015-11-11T10:33:01Z</time>
      </trkpt>
      <trkpt lat="42.71583" lon="0.69407">
        <ele>2141.95</ele>
        <time>2015-11-11T10:33:17Z</time>
      </trkpt>
      <trkpt lat="42.71592" lon="0.69415">
        <ele>2143.88</ele>
        <time>2015-11-11T10:33:35Z</time>
      </trkpt>
      <trkpt lat="42.71598" lon="0.6942">
        <ele>2146.28</ele>
        <time>2015-11-11T10:33:49Z</time>
      </trkpt>
      <trkpt lat="42.71606" lon="0.69424">
        <ele>2148.2</ele>
        <time>2015-11-11T10:34:05Z</time>
      </trkpt>
      <trkpt lat="42.71606" lon="0.69424">
        <ele>2149.16</ele>
        <time>2015-11-11T10:34:31Z</time>
      </trkpt>
      <trkpt lat="42.7161" lon="0.69426">
        <ele>2149.65</ele>
        <time>2015-11-11T10:34:45Z</time>
      </trkpt>
      <trkpt lat="42.71615" lon="0.69432">
        <ele>2152.05</ele>
        <time>2015-11-11T10:35:01Z</time>
      </trkpt>
      <trkpt lat="42.71606" lon="0.69438">
        <ele>2154.45</ele>
        <time>2015-11-11T10:35:16Z</time>
      </trkpt>
      <trkpt lat="42.71601" lon="0.69446">
        <ele>2156.86</ele>
        <time>2015-11-11T10:35:32Z</time>
      </trkpt>
      <trkpt lat="42.71594" lon="0.69455">
        <ele>2159.26</ele>
        <time>2015-11-11T10:35:48Z</time>
      </trkpt>
      <trkpt lat="42.71594" lon="0.69455">
        <ele>2159.74</ele>
        <time>2015-11-11T10:36:09Z</time>
      </trkpt>
      <trkpt lat="42.71594" lon="0.69455">
        <ele>2159.74</ele>
        <time>2015-11-11T10:36:37Z</time>
      </trkpt>
      <trkpt lat="42.71595" lon="0.69457">
        <ele>2159.74</ele>
        <time>2015-11-11T10:36:51Z</time>
      </trkpt>
      <trkpt lat="42.71602" lon="0.69459">
        <ele>2160.7</ele>
        <time>2015-11-11T10:37:07Z</time>
      </trkpt>
      <trkpt lat="42.7161" lon="0.69462">
        <ele>2163.1</ele>
        <time>2015-11-11T10:37:23Z</time>
      </trkpt>
      <trkpt lat="42.71616" lon="0.69466">
        <ele>2165.03</ele>
        <time>2015-11-11T10:37:37Z</time>
      </trkpt>
      <trkpt lat="42.7161" lon="0.69474">
        <ele>2167.43</ele>
        <time>2015-11-11T10:37:52Z</time>
      </trkpt>
      <trkpt lat="42.7161" lon="0.69479">
        <ele>2168.87</ele>
        <time>2015-11-11T10:38:09Z</time>
      </trkpt>
      <trkpt lat="42.7161" lon="0.6948">
        <ele>2168.87</ele>
        <time>2015-11-11T10:38:37Z</time>
      </trkpt>
      <trkpt lat="42.71618" lon="0.69481">
        <ele>2169.83</ele>
        <time>2015-11-11T10:38:53Z</time>
      </trkpt>
      <trkpt lat="42.71629" lon="0.69481">
        <ele>2172.72</ele>
        <time>2015-11-11T10:39:11Z</time>
      </trkpt>
      <trkpt lat="42.71636" lon="0.69482">
        <ele>2174.64</ele>
        <time>2015-11-11T10:39:27Z</time>
      </trkpt>
      <trkpt lat="42.71635" lon="0.69481">
        <ele>2175.12</ele>
        <time>2015-11-11T10:39:50Z</time>
      </trkpt>
      <trkpt lat="42.71637" lon="0.69482">
        <ele>2175.12</ele>
        <time>2015-11-11T10:40:09Z</time>
      </trkpt>
      <trkpt lat="42.71636" lon="0.69483">
        <ele>2175.12</ele>
        <time>2015-11-11T10:40:23Z</time>
      </trkpt>
      <trkpt lat="42.71636" lon="0.69481">
        <ele>2175.12</ele>
        <time>2015-11-11T10:40:49Z</time>
      </trkpt>
      <trkpt lat="42.71636" lon="0.69482">
        <ele>2175.12</ele>
        <time>2015-11-11T10:41:12Z</time>
      </trkpt>
      <trkpt lat="42.71636" lon="0.69479">
        <ele>2175.12</ele>
        <time>2015-11-11T10:41:26Z</time>
      </trkpt>
      <trkpt lat="42.71641" lon="0.69481">
        <ele>2176.56</ele>
        <time>2015-11-11T10:41:43Z</time>
      </trkpt>
      <trkpt lat="42.71652" lon="0.69484">
        <ele>2178.97</ele>
        <time>2015-11-11T10:41:55Z</time>
      </trkpt>
      <trkpt lat="42.71659" lon="0.69485">
        <ele>2179.93</ele>
        <time>2015-11-11T10:42:03Z</time>
      </trkpt>
      <trkpt lat="42.71673" lon="0.69484">
        <ele>2183.29</ele>
        <time>2015-11-11T10:42:19Z</time>
      </trkpt>
      <trkpt lat="42.71686" lon="0.69483">
        <ele>2185.21</ele>
        <time>2015-11-11T10:42:33Z</time>
      </trkpt>
      <trkpt lat="42.71692" lon="0.69482">
        <ele>2186.66</ele>
        <time>2015-11-11T10:42:47Z</time>
      </trkpt>
      <trkpt lat="42.71692" lon="0.69481">
        <ele>2186.66</ele>
        <time>2015-11-11T10:43:10Z</time>
      </trkpt>
      <trkpt lat="42.71692" lon="0.69481">
        <ele>2187.14</ele>
        <time>2015-11-11T10:43:37Z</time>
      </trkpt>
      <trkpt lat="42.71695" lon="0.69481">
        <ele>2187.14</ele>
        <time>2015-11-11T10:43:59Z</time>
      </trkpt>
      <trkpt lat="42.71707" lon="0.69478">
        <ele>2188.1</ele>
        <time>2015-11-11T10:44:14Z</time>
      </trkpt>
      <trkpt lat="42.71713" lon="0.69474">
        <ele>2189.54</ele>
        <time>2015-11-11T10:44:29Z</time>
      </trkpt>
      <trkpt lat="42.71726" lon="0.69468">
        <ele>2190.5</ele>
        <time>2015-11-11T10:44:43Z</time>
      </trkpt>
      <trkpt lat="42.71737" lon="0.69462">
        <ele>2192.9</ele>
        <time>2015-11-11T10:44:59Z</time>
      </trkpt>
      <trkpt lat="42.71734" lon="0.69467">
        <ele>2194.35</ele>
        <time>2015-11-11T10:45:14Z</time>
      </trkpt>
      <trkpt lat="42.71726" lon="0.69479">
        <ele>2195.79</ele>
        <time>2015-11-11T10:45:32Z</time>
      </trkpt>
      <trkpt lat="42.71733" lon="0.69483">
        <ele>2197.23</ele>
        <time>2015-11-11T10:45:46Z</time>
      </trkpt>
      <trkpt lat="42.71741" lon="0.69478">
        <ele>2199.15</ele>
        <time>2015-11-11T10:46:03Z</time>
      </trkpt>
      <trkpt lat="42.71742" lon="0.69475">
        <ele>2200.11</ele>
        <time>2015-11-11T10:46:21Z</time>
      </trkpt>
      <trkpt lat="42.71745" lon="0.69475">
        <ele>2200.59</ele>
        <time>2015-11-11T10:46:35Z</time>
      </trkpt>
      <trkpt lat="42.71745" lon="0.69476">
        <ele>2201.56</ele>
        <time>2015-11-11T10:47:00Z</time>
      </trkpt>
      <trkpt lat="42.71742" lon="0.69483">
        <ele>2202.52</ele>
        <time>2015-11-11T10:47:22Z</time>
      </trkpt>
      <trkpt lat="42.71743" lon="0.69489">
        <ele>2203.48</ele>
        <time>2015-11-11T10:47:37Z</time>
      </trkpt>
      <trkpt lat="42.7174" lon="0.69501">
        <ele>2205.88</ele>
        <time>2015-11-11T10:47:53Z</time>
      </trkpt>
      <trkpt lat="42.71731" lon="0.69514">
        <ele>2208.29</ele>
        <time>2015-11-11T10:48:12Z</time>
      </trkpt>
      <trkpt lat="42.71736" lon="0.69519">
        <ele>2209.25</ele>
        <time>2015-11-11T10:48:24Z</time>
      </trkpt>
      <trkpt lat="42.71739" lon="0.69517">
        <ele>2209.73</ele>
        <time>2015-11-11T10:48:39Z</time>
      </trkpt>
      <trkpt lat="42.71747" lon="0.69513">
        <ele>2210.69</ele>
        <time>2015-11-11T10:48:50Z</time>
      </trkpt>
      <trkpt lat="42.71755" lon="0.69508">
        <ele>2211.17</ele>
        <time>2015-11-11T10:49:03Z</time>
      </trkpt>
      <trkpt lat="42.71754" lon="0.69506">
        <ele>2211.65</ele>
        <time>2015-11-11T10:49:18Z</time>
      </trkpt>
      <trkpt lat="42.71754" lon="0.69505">
        <ele>2212.13</ele>
        <time>2015-11-11T10:49:47Z</time>
      </trkpt>
      <trkpt lat="42.71753" lon="0.69506">
        <ele>2212.13</ele>
        <time>2015-11-11T10:50:09Z</time>
      </trkpt>
      <trkpt lat="42.71753" lon="0.69504">
        <ele>2212.13</ele>
        <time>2015-11-11T10:50:33Z</time>
      </trkpt>
      <trkpt lat="42.71755" lon="0.69504">
        <ele>2212.13</ele>
        <time>2015-11-11T10:50:41Z</time>
      </trkpt>
      <trkpt lat="42.71763" lon="0.69498">
        <ele>2213.09</ele>
        <time>2015-11-11T10:50:51Z</time>
      </trkpt>
      <trkpt lat="42.71772" lon="0.69485">
        <ele>2215.5</ele>
        <time>2015-11-11T10:51:08Z</time>
      </trkpt>
      <trkpt lat="42.71781" lon="0.69484">
        <ele>2217.42</ele>
        <time>2015-11-11T10:51:24Z</time>
      </trkpt>
      <trkpt lat="42.71783" lon="0.69491">
        <ele>2219.34</ele>
        <time>2015-11-11T10:51:37Z</time>
      </trkpt>
      <trkpt lat="42.71788" lon="0.69498">
        <ele>2221.74</ele>
        <time>2015-11-11T10:51:53Z</time>
      </trkpt>
      <trkpt lat="42.71785" lon="0.69504">
        <ele>2223.19</ele>
        <time>2015-11-11T10:52:06Z</time>
      </trkpt>
      <trkpt lat="42.71788" lon="0.69507">
        <ele>2224.15</ele>
        <time>2015-11-11T10:52:17Z</time>
      </trkpt>
      <trkpt lat="42.71791" lon="0.69513">
        <ele>2225.59</ele>
        <time>2015-11-11T10:52:30Z</time>
      </trkpt>
      <trkpt lat="42.71793" lon="0.69521">
        <ele>2227.51</ele>
        <time>2015-11-11T10:52:45Z</time>
      </trkpt>
      <trkpt lat="42.71803" lon="0.69523">
        <ele>2229.92</ele>
        <time>2015-11-11T10:53:00Z</time>
      </trkpt>
      <trkpt lat="42.71808" lon="0.69525">
        <ele>2231.84</ele>
        <time>2015-11-11T10:53:12Z</time>
      </trkpt>
      <trkpt lat="42.71807" lon="0.69526">
        <ele>2232.8</ele>
        <time>2015-11-11T10:53:27Z</time>
      </trkpt>
      <trkpt lat="42.71805" lon="0.69527">
        <ele>2232.8</ele>
        <time>2015-11-11T10:53:47Z</time>
      </trkpt>
      <trkpt lat="42.71805" lon="0.69529">
        <ele>2232.8</ele>
        <time>2015-11-11T10:54:02Z</time>
      </trkpt>
      <trkpt lat="42.71804" lon="0.69526">
        <ele>2232.8</ele>
        <time>2015-11-11T10:54:25Z</time>
      </trkpt>
      <trkpt lat="42.71804" lon="0.69526">
        <ele>2232.8</ele>
        <time>2015-11-11T10:54:44Z</time>
      </trkpt>
      <trkpt lat="42.71805" lon="0.69526">
        <ele>2233.28</ele>
        <time>2015-11-11T10:55:01Z</time>
      </trkpt>
      <trkpt lat="42.71805" lon="0.69527">
        <ele>2233.28</ele>
        <time>2015-11-11T10:55:28Z</time>
      </trkpt>
      <trkpt lat="42.71802" lon="0.69535">
        <ele>2233.28</ele>
        <time>2015-11-11T10:55:42Z</time>
      </trkpt>
      <trkpt lat="42.71795" lon="0.69548">
        <ele>2235.2</ele>
        <time>2015-11-11T10:55:57Z</time>
      </trkpt>
      <trkpt lat="42.71794" lon="0.69559">
        <ele>2237.13</ele>
        <time>2015-11-11T10:56:11Z</time>
      </trkpt>
      <trkpt lat="42.71797" lon="0.69574">
        <ele>2239.53</ele>
        <time>2015-11-11T10:56:27Z</time>
      </trkpt>
      <trkpt lat="42.71798" lon="0.69587">
        <ele>2241.93</ele>
        <time>2015-11-11T10:56:43Z</time>
      </trkpt>
      <trkpt lat="42.71799" lon="0.69599">
        <ele>2243.37</ele>
        <time>2015-11-11T10:56:58Z</time>
      </trkpt>
      <trkpt lat="42.71798" lon="0.69609">
        <ele>2245.78</ele>
        <time>2015-11-11T10:57:15Z</time>
      </trkpt>
      <trkpt lat="42.71797" lon="0.69618">
        <ele>2248.18</ele>
        <time>2015-11-11T10:57:31Z</time>
      </trkpt>
      <trkpt lat="42.71797" lon="0.69628">
        <ele>2250.1</ele>
        <time>2015-11-11T10:57:46Z</time>
      </trkpt>
      <trkpt lat="42.71795" lon="0.69634">
        <ele>2252.03</ele>
        <time>2015-11-11T10:57:59Z</time>
      </trkpt>
      <trkpt lat="42.71791" lon="0.69638">
        <ele>2253.95</ele>
        <time>2015-11-11T10:58:13Z</time>
      </trkpt>
      <trkpt lat="42.71787" lon="0.69647">
        <ele>2256.83</ele>
        <time>2015-11-11T10:58:28Z</time>
      </trkpt>
      <trkpt lat="42.71789" lon="0.69648">
        <ele>2257.31</ele>
        <time>2015-11-11T10:58:43Z</time>
      </trkpt>
      <trkpt lat="42.71793" lon="0.69654">
        <ele>2257.79</ele>
        <time>2015-11-11T10:59:02Z</time>
      </trkpt>
      <trkpt lat="42.71796" lon="0.69658">
        <ele>2258.27</ele>
        <time>2015-11-11T10:59:07Z</time>
      </trkpt>
      <trkpt lat="42.71803" lon="0.69672">
        <ele>2259.24</ele>
        <time>2015-11-11T10:59:23Z</time>
      </trkpt>
      <trkpt lat="42.71805" lon="0.69681">
        <ele>2259.24</ele>
        <time>2015-11-11T10:59:37Z</time>
      </trkpt>
      <trkpt lat="42.71805" lon="0.69688">
        <ele>2261.16</ele>
        <time>2015-11-11T10:59:50Z</time>
      </trkpt>
      <trkpt lat="42.71808" lon="0.6969">
        <ele>2262.12</ele>
        <time>2015-11-11T11:00:03Z</time>
      </trkpt>
      <trkpt lat="42.71808" lon="0.69697">
        <ele>2262.12</ele>
        <time>2015-11-11T11:00:18Z</time>
      </trkpt>
      <trkpt lat="42.71808" lon="0.69698">
        <ele>2260.68</ele>
        <time>2015-11-11T11:00:25Z</time>
      </trkpt>
      <trkpt lat="42.71805" lon="0.69698">
        <ele>2251.06</ele>
        <time>2015-11-11T11:14:39Z</time>
      </trkpt>
      <trkpt lat="42.71806" lon="0.697">
        <ele>2253.95</ele>
        <time>2015-11-11T11:14:44Z</time>
      </trkpt>
      <trkpt lat="42.71805" lon="0.69702">
        <ele>2257.31</ele>
        <time>2015-11-11T11:14:51Z</time>
      </trkpt>
      <trkpt lat="42.71806" lon="0.69703">
        <ele>2260.68</ele>
        <time>2015-11-11T11:14:57Z</time>
      </trkpt>
      <trkpt lat="42.71806" lon="0.69703">
        <ele>2264.04</ele>
        <time>2015-11-11T11:15:05Z</time>
      </trkpt>
      <trkpt lat="42.71806" lon="0.697">
        <ele>2266.93</ele>
        <time>2015-11-11T11:15:15Z</time>
      </trkpt>
      <trkpt lat="42.71807" lon="0.69697">
        <ele>2268.37</ele>
        <time>2015-11-11T11:15:34Z</time>
      </trkpt>
      <trkpt lat="42.71807" lon="0.69695">
        <ele>2268.37</ele>
        <time>2015-11-11T11:15:48Z</time>
      </trkpt>
      <trkpt lat="42.71807" lon="0.69694">
        <ele>2268.85</ele>
        <time>2015-11-11T11:16:03Z</time>
      </trkpt>
      <trkpt lat="42.71804" lon="0.6969">
        <ele>2268.85</ele>
        <time>2015-11-11T11:16:16Z</time>
      </trkpt>
      <trkpt lat="42.71804" lon="0.69688">
        <ele>2267.41</ele>
        <time>2015-11-11T11:16:34Z</time>
      </trkpt>
      <trkpt lat="42.71804" lon="0.6968">
        <ele>2265</ele>
        <time>2015-11-11T11:16:46Z</time>
      </trkpt>
      <trkpt lat="42.71802" lon="0.69674">
        <ele>2265</ele>
        <time>2015-11-11T11:16:55Z</time>
      </trkpt>
      <trkpt lat="42.71798" lon="0.69667">
        <ele>2265.48</ele>
        <time>2015-11-11T11:17:10Z</time>
      </trkpt>
      <trkpt lat="42.71792" lon="0.69655">
        <ele>2264.52</ele>
        <time>2015-11-11T11:17:25Z</time>
      </trkpt>
      <trkpt lat="42.71787" lon="0.69647">
        <ele>2263.56</ele>
        <time>2015-11-11T11:17:39Z</time>
      </trkpt>
      <trkpt lat="42.71783" lon="0.69638">
        <ele>2263.08</ele>
        <time>2015-11-11T11:17:50Z</time>
      </trkpt>
      <trkpt lat="42.7178" lon="0.69631">
        <ele>2264.52</ele>
        <time>2015-11-11T11:18:02Z</time>
      </trkpt>
      <trkpt lat="42.71775" lon="0.69622">
        <ele>2265.96</ele>
        <time>2015-11-11T11:18:16Z</time>
      </trkpt>
      <trkpt lat="42.71775" lon="0.69621">
        <ele>2265.96</ele>
        <time>2015-11-11T11:18:31Z</time>
      </trkpt>
      <trkpt lat="42.71775" lon="0.69621">
        <ele>2264.04</ele>
        <time>2015-11-11T11:18:35Z</time>
      </trkpt>
      <trkpt lat="42.71772" lon="0.69619">
        <ele>2264.52</ele>
        <time>2015-11-11T12:36:17Z</time>
      </trkpt>
      <trkpt lat="42.71771" lon="0.6962">
        <ele>2264.52</ele>
        <time>2015-11-11T12:36:18Z</time>
      </trkpt>
      <trkpt lat="42.71769" lon="0.6962">
        <ele>2263.56</ele>
        <time>2015-11-11T12:36:34Z</time>
      </trkpt>
      <trkpt lat="42.71766" lon="0.69611">
        <ele>2261.16</ele>
        <time>2015-11-11T12:36:48Z</time>
      </trkpt>
      <trkpt lat="42.71761" lon="0.69603">
        <ele>2257.31</ele>
        <time>2015-11-11T12:37:02Z</time>
      </trkpt>
      <trkpt lat="42.71752" lon="0.69605">
        <ele>2254.43</ele>
        <time>2015-11-11T12:37:17Z</time>
      </trkpt>
      <trkpt lat="42.71751" lon="0.69605">
        <ele>2253.95</ele>
        <time>2015-11-11T12:37:22Z</time>
      </trkpt>
      <trkpt lat="42.71748" lon="0.69607">
        <ele>2252.03</ele>
        <time>2015-11-11T12:37:36Z</time>
      </trkpt>
      <trkpt lat="42.71742" lon="0.69607">
        <ele>2249.14</ele>
        <time>2015-11-11T12:37:51Z</time>
      </trkpt>
      <trkpt lat="42.71739" lon="0.69602">
        <ele>2246.26</ele>
        <time>2015-11-11T12:38:05Z</time>
      </trkpt>
      <trkpt lat="42.71727" lon="0.69602">
        <ele>2242.89</ele>
        <time>2015-11-11T12:38:20Z</time>
      </trkpt>
      <trkpt lat="42.71722" lon="0.69594">
        <ele>2240.01</ele>
        <time>2015-11-11T12:38:33Z</time>
      </trkpt>
      <trkpt lat="42.71717" lon="0.69588">
        <ele>2238.09</ele>
        <time>2015-11-11T12:38:45Z</time>
      </trkpt>
      <trkpt lat="42.71711" lon="0.69578">
        <ele>2236.16</ele>
        <time>2015-11-11T12:38:59Z</time>
      </trkpt>
      <trkpt lat="42.71713" lon="0.69573">
        <ele>2235.2</ele>
        <time>2015-11-11T12:39:14Z</time>
      </trkpt>
      <trkpt lat="42.71713" lon="0.69574">
        <ele>2235.2</ele>
        <time>2015-11-11T12:39:34Z</time>
      </trkpt>
      <trkpt lat="42.71717" lon="0.69572">
        <ele>2234.72</ele>
        <time>2015-11-11T12:39:39Z</time>
      </trkpt>
      <trkpt lat="42.71721" lon="0.69568">
        <ele>2232.8</ele>
        <time>2015-11-11T12:39:46Z</time>
      </trkpt>
      <trkpt lat="42.71734" lon="0.69564">
        <ele>2232.32</ele>
        <time>2015-11-11T12:40:00Z</time>
      </trkpt>
      <trkpt lat="42.71744" lon="0.69557">
        <ele>2232.32</ele>
        <time>2015-11-11T12:40:13Z</time>
      </trkpt>
      <trkpt lat="42.71758" lon="0.69544">
        <ele>2232.32</ele>
        <time>2015-11-11T12:40:29Z</time>
      </trkpt>
      <trkpt lat="42.71765" lon="0.69539">
        <ele>2232.32</ele>
        <time>2015-11-11T12:40:41Z</time>
      </trkpt>
      <trkpt lat="42.71767" lon="0.69533">
        <ele>2231.84</ele>
        <time>2015-11-11T12:40:50Z</time>
      </trkpt>
      <trkpt lat="42.71765" lon="0.69524">
        <ele>2228.47</ele>
        <time>2015-11-11T12:41:03Z</time>
      </trkpt>
      <trkpt lat="42.71765" lon="0.69519">
        <ele>2227.99</ele>
        <time>2015-11-11T12:41:14Z</time>
      </trkpt>
      <trkpt lat="42.71771" lon="0.6951">
        <ele>2227.03</ele>
        <time>2015-11-11T12:41:30Z</time>
      </trkpt>
      <trkpt lat="42.71778" lon="0.69499">
        <ele>2227.03</ele>
        <time>2015-11-11T12:41:43Z</time>
      </trkpt>
      <trkpt lat="42.71783" lon="0.69494">
        <ele>2227.03</ele>
        <time>2015-11-11T12:41:49Z</time>
      </trkpt>
      <trkpt lat="42.71786" lon="0.69492">
        <ele>2227.99</ele>
        <time>2015-11-11T12:41:53Z</time>
      </trkpt>
      <trkpt lat="42.71791" lon="0.69475">
        <ele>2228.47</ele>
        <time>2015-11-11T12:42:07Z</time>
      </trkpt>
      <trkpt lat="42.71796" lon="0.69455">
        <ele>2227.03</ele>
        <time>2015-11-11T12:42:24Z</time>
      </trkpt>
      <trkpt lat="42.71802" lon="0.6944">
        <ele>2226.07</ele>
        <time>2015-11-11T12:42:39Z</time>
      </trkpt>
      <trkpt lat="42.71803" lon="0.69424">
        <ele>2223.19</ele>
        <time>2015-11-11T12:42:53Z</time>
      </trkpt>
      <trkpt lat="42.71808" lon="0.69411">
        <ele>2220.78</ele>
        <time>2015-11-11T12:43:06Z</time>
      </trkpt>
      <trkpt lat="42.71817" lon="0.69396">
        <ele>2217.9</ele>
        <time>2015-11-11T12:43:24Z</time>
      </trkpt>
      <trkpt lat="42.71823" lon="0.69386">
        <ele>2215.01</ele>
        <time>2015-11-11T12:43:38Z</time>
      </trkpt>
      <trkpt lat="42.71834" lon="0.69376">
        <ele>2212.13</ele>
        <time>2015-11-11T12:43:56Z</time>
      </trkpt>
      <trkpt lat="42.71845" lon="0.6937">
        <ele>2210.69</ele>
        <time>2015-11-11T12:44:12Z</time>
      </trkpt>
      <trkpt lat="42.71852" lon="0.69363">
        <ele>2207.32</ele>
        <time>2015-11-11T12:44:26Z</time>
      </trkpt>
      <trkpt lat="42.71862" lon="0.69354">
        <ele>2203.96</ele>
        <time>2015-11-11T12:44:44Z</time>
      </trkpt>
      <trkpt lat="42.71869" lon="0.69345">
        <ele>2200.59</ele>
        <time>2015-11-11T12:45:00Z</time>
      </trkpt>
      <trkpt lat="42.71874" lon="0.69336">
        <ele>2197.71</ele>
        <time>2015-11-11T12:45:14Z</time>
      </trkpt>
      <trkpt lat="42.71873" lon="0.69335">
        <ele>2197.23</ele>
        <time>2015-11-11T12:45:34Z</time>
      </trkpt>
      <trkpt lat="42.71874" lon="0.69334">
        <ele>2197.23</ele>
        <time>2015-11-11T12:45:59Z</time>
      </trkpt>
      <trkpt lat="42.71882" lon="0.69329">
        <ele>2195.79</ele>
        <time>2015-11-11T12:46:13Z</time>
      </trkpt>
      <trkpt lat="42.71887" lon="0.69324">
        <ele>2194.35</ele>
        <time>2015-11-11T12:46:20Z</time>
      </trkpt>
      <trkpt lat="42.71889" lon="0.6932">
        <ele>2192.9</ele>
        <time>2015-11-11T12:46:32Z</time>
      </trkpt>
      <trkpt lat="42.71891" lon="0.69315">
        <ele>2192.9</ele>
        <time>2015-11-11T12:46:36Z</time>
      </trkpt>
      <trkpt lat="42.71898" lon="0.69295">
        <ele>2191.94</ele>
        <time>2015-11-11T12:46:51Z</time>
      </trkpt>
      <trkpt lat="42.71904" lon="0.6929">
        <ele>2191.94</ele>
        <time>2015-11-11T12:46:58Z</time>
      </trkpt>
      <trkpt lat="42.71913" lon="0.69272">
        <ele>2190.98</ele>
        <time>2015-11-11T12:47:10Z</time>
      </trkpt>
      <trkpt lat="42.71914" lon="0.69269">
        <ele>2190.98</ele>
        <time>2015-11-11T12:47:12Z</time>
      </trkpt>
      <trkpt lat="42.71921" lon="0.69247">
        <ele>2190.98</ele>
        <time>2015-11-11T12:47:27Z</time>
      </trkpt>
      <trkpt lat="42.71925" lon="0.69222">
        <ele>2190.5</ele>
        <time>2015-11-11T12:47:45Z</time>
      </trkpt>
      <trkpt lat="42.71924" lon="0.69204">
        <ele>2188.1</ele>
        <time>2015-11-11T12:48:01Z</time>
      </trkpt>
      <trkpt lat="42.71924" lon="0.69207">
        <ele>2188.1</ele>
        <time>2015-11-11T12:48:21Z</time>
      </trkpt>
      <trkpt lat="42.71922" lon="0.69204">
        <ele>2187.14</ele>
        <time>2015-11-11T12:48:36Z</time>
      </trkpt>
      <trkpt lat="42.7192" lon="0.69202">
        <ele>2187.14</ele>
        <time>2015-11-11T12:48:51Z</time>
      </trkpt>
      <trkpt lat="42.71915" lon="0.69205">
        <ele>2183.77</ele>
        <time>2015-11-11T12:49:04Z</time>
      </trkpt>
      <trkpt lat="42.71909" lon="0.69207">
        <ele>2180.89</ele>
        <time>2015-11-11T12:49:18Z</time>
      </trkpt>
      <trkpt lat="42.71909" lon="0.69213">
        <ele>2179.93</ele>
        <time>2015-11-11T12:49:32Z</time>
      </trkpt>
      <trkpt lat="42.71905" lon="0.69214">
        <ele>2178.48</ele>
        <time>2015-11-11T12:49:47Z</time>
      </trkpt>
      <trkpt lat="42.719" lon="0.69215">
        <ele>2175.6</ele>
        <time>2015-11-11T12:50:02Z</time>
      </trkpt>
      <trkpt lat="42.71897" lon="0.6922">
        <ele>2174.16</ele>
        <time>2015-11-11T12:50:16Z</time>
      </trkpt>
      <trkpt lat="42.71895" lon="0.69222">
        <ele>2172.24</ele>
        <time>2015-11-11T12:50:28Z</time>
      </trkpt>
      <trkpt lat="42.71888" lon="0.69227">
        <ele>2168.87</ele>
        <time>2015-11-11T12:50:41Z</time>
      </trkpt>
      <trkpt lat="42.71881" lon="0.69235">
        <ele>2165.51</ele>
        <time>2015-11-11T12:50:56Z</time>
      </trkpt>
      <trkpt lat="42.71873" lon="0.69238">
        <ele>2162.14</ele>
        <time>2015-11-11T12:51:10Z</time>
      </trkpt>
      <trkpt lat="42.71868" lon="0.69235">
        <ele>2159.74</ele>
        <time>2015-11-11T12:51:24Z</time>
      </trkpt>
      <trkpt lat="42.71864" lon="0.69226">
        <ele>2156.86</ele>
        <time>2015-11-11T12:51:37Z</time>
      </trkpt>
      <trkpt lat="42.71861" lon="0.69223">
        <ele>2154.45</ele>
        <time>2015-11-11T12:51:50Z</time>
      </trkpt>
      <trkpt lat="42.71861" lon="0.69216">
        <ele>2152.05</ele>
        <time>2015-11-11T12:52:03Z</time>
      </trkpt>
      <trkpt lat="42.71862" lon="0.69204">
        <ele>2149.16</ele>
        <time>2015-11-11T12:52:17Z</time>
      </trkpt>
      <trkpt lat="42.71861" lon="0.69199">
        <ele>2147.24</ele>
        <time>2015-11-11T12:52:32Z</time>
      </trkpt>
      <trkpt lat="42.7186" lon="0.69197">
        <ele>2145.8</ele>
        <time>2015-11-11T12:52:37Z</time>
      </trkpt>
      <trkpt lat="42.71854" lon="0.69191">
        <ele>2142.44</ele>
        <time>2015-11-11T12:52:51Z</time>
      </trkpt>
      <trkpt lat="42.71848" lon="0.69189">
        <ele>2139.07</ele>
        <time>2015-11-11T12:53:06Z</time>
      </trkpt>
      <trkpt lat="42.71841" lon="0.69189">
        <ele>2136.67</ele>
        <time>2015-11-11T12:53:23Z</time>
      </trkpt>
      <trkpt lat="42.71835" lon="0.69188">
        <ele>2133.3</ele>
        <time>2015-11-11T12:53:38Z</time>
      </trkpt>
      <trkpt lat="42.71828" lon="0.69179">
        <ele>2129.94</ele>
        <time>2015-11-11T12:53:53Z</time>
      </trkpt>
      <trkpt lat="42.71824" lon="0.69171">
        <ele>2126.57</ele>
        <time>2015-11-11T12:54:06Z</time>
      </trkpt>
      <trkpt lat="42.71815" lon="0.69166">
        <ele>2123.69</ele>
        <time>2015-11-11T12:54:19Z</time>
      </trkpt>
      <trkpt lat="42.71807" lon="0.69158">
        <ele>2120.81</ele>
        <time>2015-11-11T12:54:34Z</time>
      </trkpt>
      <trkpt lat="42.718" lon="0.69161">
        <ele>2117.44</ele>
        <time>2015-11-11T12:54:48Z</time>
      </trkpt>
      <trkpt lat="42.71794" lon="0.69156">
        <ele>2114.56</ele>
        <time>2015-11-11T12:55:01Z</time>
      </trkpt>
      <trkpt lat="42.71786" lon="0.69155">
        <ele>2111.67</ele>
        <time>2015-11-11T12:55:13Z</time>
      </trkpt>
      <trkpt lat="42.71775" lon="0.69158">
        <ele>2108.79</ele>
        <time>2015-11-11T12:55:28Z</time>
      </trkpt>
      <trkpt lat="42.71765" lon="0.69156">
        <ele>2105.42</ele>
        <time>2015-11-11T12:55:43Z</time>
      </trkpt>
      <trkpt lat="42.71763" lon="0.69157">
        <ele>2104.94</ele>
        <time>2015-11-11T12:55:45Z</time>
      </trkpt>
      <trkpt lat="42.71744" lon="0.69157">
        <ele>2101.1</ele>
        <time>2015-11-11T12:56:06Z</time>
      </trkpt>
      <trkpt lat="42.71743" lon="0.69156">
        <ele>2101.1</ele>
        <time>2015-11-11T12:56:08Z</time>
      </trkpt>
      <trkpt lat="42.71732" lon="0.6915">
        <ele>2098.21</ele>
        <time>2015-11-11T12:56:22Z</time>
      </trkpt>
      <trkpt lat="42.7172" lon="0.69142">
        <ele>2094.85</ele>
        <time>2015-11-11T12:56:39Z</time>
      </trkpt>
      <trkpt lat="42.71708" lon="0.6914">
        <ele>2092.93</ele>
        <time>2015-11-11T12:56:54Z</time>
      </trkpt>
      <trkpt lat="42.71694" lon="0.69135">
        <ele>2090.52</ele>
        <time>2015-11-11T12:57:11Z</time>
      </trkpt>
      <trkpt lat="42.7168" lon="0.69129">
        <ele>2089.08</ele>
        <time>2015-11-11T12:57:27Z</time>
      </trkpt>
      <trkpt lat="42.71667" lon="0.69129">
        <ele>2088.6</ele>
        <time>2015-11-11T12:57:44Z</time>
      </trkpt>
      <trkpt lat="42.71666" lon="0.69128">
        <ele>2088.12</ele>
        <time>2015-11-11T12:58:03Z</time>
      </trkpt>
      <trkpt lat="42.71667" lon="0.69127">
        <ele>2087.16</ele>
        <time>2015-11-11T12:58:20Z</time>
      </trkpt>
      <trkpt lat="42.71663" lon="0.69121">
        <ele>2084.28</ele>
        <time>2015-11-11T12:58:38Z</time>
      </trkpt>
      <trkpt lat="42.71659" lon="0.69111">
        <ele>2080.91</ele>
        <time>2015-11-11T12:58:50Z</time>
      </trkpt>
      <trkpt lat="42.7165" lon="0.69099">
        <ele>2077.55</ele>
        <time>2015-11-11T12:59:04Z</time>
      </trkpt>
      <trkpt lat="42.71643" lon="0.69088">
        <ele>2074.66</ele>
        <time>2015-11-11T12:59:19Z</time>
      </trkpt>
      <trkpt lat="42.71635" lon="0.6908">
        <ele>2073.22</ele>
        <time>2015-11-11T12:59:32Z</time>
      </trkpt>
      <trkpt lat="42.71627" lon="0.6907">
        <ele>2070.34</ele>
        <time>2015-11-11T12:59:46Z</time>
      </trkpt>
      <trkpt lat="42.7162" lon="0.69063">
        <ele>2067.93</ele>
        <time>2015-11-11T13:00:02Z</time>
      </trkpt>
      <trkpt lat="42.71619" lon="0.69062">
        <ele>2066.97</ele>
        <time>2015-11-11T13:00:33Z</time>
      </trkpt>
      <trkpt lat="42.71617" lon="0.69055">
        <ele>2066.49</ele>
        <time>2015-11-11T13:00:48Z</time>
      </trkpt>
      <trkpt lat="42.71611" lon="0.69051">
        <ele>2065.05</ele>
        <time>2015-11-11T13:01:00Z</time>
      </trkpt>
      <trkpt lat="42.71607" lon="0.69049">
        <ele>2063.61</ele>
        <time>2015-11-11T13:01:06Z</time>
      </trkpt>
      <trkpt lat="42.716" lon="0.69032">
        <ele>2062.17</ele>
        <time>2015-11-11T13:01:23Z</time>
      </trkpt>
      <trkpt lat="42.71595" lon="0.6902">
        <ele>2061.68</ele>
        <time>2015-11-11T13:01:38Z</time>
      </trkpt>
      <trkpt lat="42.7159" lon="0.68997">
        <ele>2060.24</ele>
        <time>2015-11-11T13:01:56Z</time>
      </trkpt>
      <trkpt lat="42.71591" lon="0.68991">
        <ele>2060.24</ele>
        <time>2015-11-11T13:02:00Z</time>
      </trkpt>
      <trkpt lat="42.71591" lon="0.68972">
        <ele>2058.8</ele>
        <time>2015-11-11T13:02:14Z</time>
      </trkpt>
      <trkpt lat="42.71586" lon="0.68955">
        <ele>2057.36</ele>
        <time>2015-11-11T13:02:30Z</time>
      </trkpt>
      <trkpt lat="42.71582" lon="0.68937">
        <ele>2056.4</ele>
        <time>2015-11-11T13:02:46Z</time>
      </trkpt>
      <trkpt lat="42.71582" lon="0.68932">
        <ele>2055.92</ele>
        <time>2015-11-11T13:02:54Z</time>
      </trkpt>
      <trkpt lat="42.71579" lon="0.68911">
        <ele>2054.47</ele>
        <time>2015-11-11T13:03:11Z</time>
      </trkpt>
      <trkpt lat="42.71571" lon="0.68894">
        <ele>2052.55</ele>
        <time>2015-11-11T13:03:28Z</time>
      </trkpt>
      <trkpt lat="42.71562" lon="0.6888">
        <ele>2049.67</ele>
        <time>2015-11-11T13:03:45Z</time>
      </trkpt>
      <trkpt lat="42.71554" lon="0.68869">
        <ele>2047.75</ele>
        <time>2015-11-11T13:03:59Z</time>
      </trkpt>
      <trkpt lat="42.71546" lon="0.68858">
        <ele>2046.78</ele>
        <time>2015-11-11T13:04:11Z</time>
      </trkpt>
      <trkpt lat="42.71538" lon="0.68844">
        <ele>2043.42</ele>
        <time>2015-11-11T13:04:27Z</time>
      </trkpt>
      <trkpt lat="42.71537" lon="0.68835">
        <ele>2042.46</ele>
        <time>2015-11-11T13:04:40Z</time>
      </trkpt>
      <trkpt lat="42.71534" lon="0.68824">
        <ele>2039.57</ele>
        <time>2015-11-11T13:04:58Z</time>
      </trkpt>
      <trkpt lat="42.71536" lon="0.68811">
        <ele>2038.13</ele>
        <time>2015-11-11T13:05:12Z</time>
      </trkpt>
      <trkpt lat="42.71537" lon="0.68801">
        <ele>2037.17</ele>
        <time>2015-11-11T13:05:25Z</time>
      </trkpt>
      <trkpt lat="42.71536" lon="0.688">
        <ele>2036.69</ele>
        <time>2015-11-11T13:05:46Z</time>
      </trkpt>
      <trkpt lat="42.71533" lon="0.68795">
        <ele>2035.25</ele>
        <time>2015-11-11T13:06:00Z</time>
      </trkpt>
      <trkpt lat="42.71529" lon="0.68792">
        <ele>2034.29</ele>
        <time>2015-11-11T13:06:19Z</time>
      </trkpt>
      <trkpt lat="42.71523" lon="0.68789">
        <ele>2031.4</ele>
        <time>2015-11-11T13:06:33Z</time>
      </trkpt>
      <trkpt lat="42.71518" lon="0.68787">
        <ele>2029.48</ele>
        <time>2015-11-11T13:06:46Z</time>
      </trkpt>
      <trkpt lat="42.71517" lon="0.68776">
        <ele>2027.56</ele>
        <time>2015-11-11T13:06:59Z</time>
      </trkpt>
      <trkpt lat="42.71519" lon="0.68769">
        <ele>2025.64</ele>
        <time>2015-11-11T13:07:13Z</time>
      </trkpt>
      <trkpt lat="42.7152" lon="0.68765">
        <ele>2024.67</ele>
        <time>2015-11-11T13:07:26Z</time>
      </trkpt>
      <trkpt lat="42.71521" lon="0.68763">
        <ele>2024.67</ele>
        <time>2015-11-11T13:07:43Z</time>
      </trkpt>
      <trkpt lat="42.7152" lon="0.68763">
        <ele>2024.19</ele>
        <time>2015-11-11T13:08:01Z</time>
      </trkpt>
      <trkpt lat="42.7152" lon="0.6876">
        <ele>2024.19</ele>
        <time>2015-11-11T13:08:21Z</time>
      </trkpt>
      <trkpt lat="42.71521" lon="0.6875">
        <ele>2020.83</ele>
        <time>2015-11-11T13:08:34Z</time>
      </trkpt>
      <trkpt lat="42.7152" lon="0.6875">
        <ele>2020.83</ele>
        <time>2015-11-11T13:08:48Z</time>
      </trkpt>
      <trkpt lat="42.71521" lon="0.68746">
        <ele>2020.83</ele>
        <time>2015-11-11T13:09:04Z</time>
      </trkpt>
      <trkpt lat="42.71517" lon="0.68736">
        <ele>2018.43</ele>
        <time>2015-11-11T13:09:18Z</time>
      </trkpt>
      <trkpt lat="42.71517" lon="0.68725">
        <ele>2015.54</ele>
        <time>2015-11-11T13:09:32Z</time>
      </trkpt>
      <trkpt lat="42.71516" lon="0.68723">
        <ele>2015.06</ele>
        <time>2015-11-11T13:09:34Z</time>
      </trkpt>
      <trkpt lat="42.71515" lon="0.68713">
        <ele>2013.14</ele>
        <time>2015-11-11T13:09:43Z</time>
      </trkpt>
      <trkpt lat="42.71513" lon="0.68695">
        <ele>2009.29</ele>
        <time>2015-11-11T13:09:59Z</time>
      </trkpt>
      <trkpt lat="42.71512" lon="0.6868">
        <ele>2006.89</ele>
        <time>2015-11-11T13:10:14Z</time>
      </trkpt>
      <trkpt lat="42.71511" lon="0.68666">
        <ele>2003.52</ele>
        <time>2015-11-11T13:10:27Z</time>
      </trkpt>
      <trkpt lat="42.71509" lon="0.68658">
        <ele>2001.6</ele>
        <time>2015-11-11T13:10:35Z</time>
      </trkpt>
      <trkpt lat="42.71509" lon="0.6864">
        <ele>1998.72</ele>
        <time>2015-11-11T13:10:51Z</time>
      </trkpt>
      <trkpt lat="42.71505" lon="0.68623">
        <ele>1995.83</ele>
        <time>2015-11-11T13:11:06Z</time>
      </trkpt>
      <trkpt lat="42.71505" lon="0.68622">
        <ele>1995.83</ele>
        <time>2015-11-11T13:11:07Z</time>
      </trkpt>
      <trkpt lat="42.71506" lon="0.68601">
        <ele>1994.39</ele>
        <time>2015-11-11T13:11:23Z</time>
      </trkpt>
      <trkpt lat="42.71507" lon="0.68585">
        <ele>1992.95</ele>
        <time>2015-11-11T13:11:39Z</time>
      </trkpt>
      <trkpt lat="42.7151" lon="0.68576">
        <ele>1991.99</ele>
        <time>2015-11-11T13:11:58Z</time>
      </trkpt>
      <trkpt lat="42.71514" lon="0.6856">
        <ele>1990.07</ele>
        <time>2015-11-11T13:12:13Z</time>
      </trkpt>
      <trkpt lat="42.71515" lon="0.68542">
        <ele>1988.14</ele>
        <time>2015-11-11T13:12:29Z</time>
      </trkpt>
      <trkpt lat="42.71515" lon="0.68534">
        <ele>1987.66</ele>
        <time>2015-11-11T13:12:35Z</time>
      </trkpt>
      <trkpt lat="42.71514" lon="0.68532">
        <ele>1987.66</ele>
        <time>2015-11-11T13:12:37Z</time>
      </trkpt>
      <trkpt lat="42.71516" lon="0.68515">
        <ele>1987.18</ele>
        <time>2015-11-11T13:12:51Z</time>
      </trkpt>
      <trkpt lat="42.71521" lon="0.68498">
        <ele>1986.7</ele>
        <time>2015-11-11T13:13:05Z</time>
      </trkpt>
      <trkpt lat="42.71525" lon="0.68483">
        <ele>1985.74</ele>
        <time>2015-11-11T13:13:18Z</time>
      </trkpt>
      <trkpt lat="42.71533" lon="0.68467">
        <ele>1982.86</ele>
        <time>2015-11-11T13:13:33Z</time>
      </trkpt>
      <trkpt lat="42.71542" lon="0.68444">
        <ele>1980.45</ele>
        <time>2015-11-11T13:13:52Z</time>
      </trkpt>
      <trkpt lat="42.7155" lon="0.68423">
        <ele>1979.01</ele>
        <time>2015-11-11T13:14:09Z</time>
      </trkpt>
      <trkpt lat="42.71558" lon="0.68405">
        <ele>1977.09</ele>
        <time>2015-11-11T13:14:25Z</time>
      </trkpt>
      <trkpt lat="42.71561" lon="0.68393">
        <ele>1975.65</ele>
        <time>2015-11-11T13:14:38Z</time>
      </trkpt>
      <trkpt lat="42.71563" lon="0.68377">
        <ele>1973.72</ele>
        <time>2015-11-11T13:14:53Z</time>
      </trkpt>
      <trkpt lat="42.71568" lon="0.68361">
        <ele>1971.32</ele>
        <time>2015-11-11T13:15:11Z</time>
      </trkpt>
      <trkpt lat="42.71571" lon="0.68346">
        <ele>1968.92</ele>
        <time>2015-11-11T13:15:25Z</time>
      </trkpt>
      <trkpt lat="42.71578" lon="0.68333">
        <ele>1966.99</ele>
        <time>2015-11-11T13:15:39Z</time>
      </trkpt>
      <trkpt lat="42.7158" lon="0.68327">
        <ele>1966.99</ele>
        <time>2015-11-11T13:15:44Z</time>
      </trkpt>
      <trkpt lat="42.71586" lon="0.68316">
        <ele>1965.55</ele>
        <time>2015-11-11T13:16:00Z</time>
      </trkpt>
      <trkpt lat="42.71587" lon="0.68312">
        <ele>1964.59</ele>
        <time>2015-11-11T13:16:13Z</time>
      </trkpt>
      <trkpt lat="42.71591" lon="0.68303">
        <ele>1963.63</ele>
        <time>2015-11-11T13:16:33Z</time>
      </trkpt>
      <trkpt lat="42.71597" lon="0.68291">
        <ele>1962.19</ele>
        <time>2015-11-11T13:16:46Z</time>
      </trkpt>
      <trkpt lat="42.71598" lon="0.6829">
        <ele>1961.23</ele>
        <time>2015-11-11T13:16:48Z</time>
      </trkpt>
      <trkpt lat="42.71602" lon="0.68284">
        <ele>1960.75</ele>
        <time>2015-11-11T13:16:54Z</time>
      </trkpt>
      <trkpt lat="42.71603" lon="0.68269">
        <ele>1959.3</ele>
        <time>2015-11-11T13:17:08Z</time>
      </trkpt>
      <trkpt lat="42.71604" lon="0.68264">
        <ele>1957.86</ele>
        <time>2015-11-11T13:17:23Z</time>
      </trkpt>
      <trkpt lat="42.71609" lon="0.68252">
        <ele>1955.94</ele>
        <time>2015-11-11T13:17:37Z</time>
      </trkpt>
      <trkpt lat="42.71609" lon="0.68247">
        <ele>1954.98</ele>
        <time>2015-11-11T13:17:56Z</time>
      </trkpt>
      <trkpt lat="42.71611" lon="0.6824">
        <ele>1953.54</ele>
        <time>2015-11-11T13:18:12Z</time>
      </trkpt>
      <trkpt lat="42.71612" lon="0.68224">
        <ele>1951.61</ele>
        <time>2015-11-11T13:18:26Z</time>
      </trkpt>
      <trkpt lat="42.71615" lon="0.68214">
        <ele>1948.25</ele>
        <time>2015-11-11T13:18:40Z</time>
      </trkpt>
      <trkpt lat="42.71617" lon="0.68209">
        <ele>1947.29</ele>
        <time>2015-11-11T13:18:45Z</time>
      </trkpt>
      <trkpt lat="42.71621" lon="0.68197">
        <ele>1943.92</ele>
        <time>2015-11-11T13:18:58Z</time>
      </trkpt>
      <trkpt lat="42.71623" lon="0.6819">
        <ele>1942.96</ele>
        <time>2015-11-11T13:19:12Z</time>
      </trkpt>
      <trkpt lat="42.71623" lon="0.68186">
        <ele>1942</ele>
        <time>2015-11-11T13:19:42Z</time>
      </trkpt>
      <trkpt lat="42.71624" lon="0.68184">
        <ele>1941.52</ele>
        <time>2015-11-11T13:19:55Z</time>
      </trkpt>
      <trkpt lat="42.71622" lon="0.68183">
        <ele>1941.04</ele>
        <time>2015-11-11T13:20:19Z</time>
      </trkpt>
      <trkpt lat="42.71622" lon="0.68183">
        <ele>1941.04</ele>
        <time>2015-11-11T13:20:32Z</time>
      </trkpt>
      <trkpt lat="42.71621" lon="0.6818">
        <ele>1940.56</ele>
        <time>2015-11-11T13:20:50Z</time>
      </trkpt>
      <trkpt lat="42.71623" lon="0.68177">
        <ele>1939.6</ele>
        <time>2015-11-11T13:21:07Z</time>
      </trkpt>
      <trkpt lat="42.71625" lon="0.68163">
        <ele>1938.16</ele>
        <time>2015-11-11T13:21:21Z</time>
      </trkpt>
      <trkpt lat="42.71623" lon="0.68152">
        <ele>1935.75</ele>
        <time>2015-11-11T13:21:33Z</time>
      </trkpt>
      <trkpt lat="42.71624" lon="0.68142">
        <ele>1933.83</ele>
        <time>2015-11-11T13:21:46Z</time>
      </trkpt>
      <trkpt lat="42.71625" lon="0.68142">
        <ele>1932.87</ele>
        <time>2015-11-11T13:22:06Z</time>
      </trkpt>
      <trkpt lat="42.71626" lon="0.68142">
        <ele>1932.39</ele>
        <time>2015-11-11T13:22:22Z</time>
      </trkpt>
      <trkpt lat="42.71621" lon="0.68141">
        <ele>1932.39</ele>
        <time>2015-11-11T13:22:47Z</time>
      </trkpt>
      <trkpt lat="42.71623" lon="0.68131">
        <ele>1931.43</ele>
        <time>2015-11-11T13:22:58Z</time>
      </trkpt>
      <trkpt lat="42.71627" lon="0.68115">
        <ele>1928.06</ele>
        <time>2015-11-11T13:23:12Z</time>
      </trkpt>
      <trkpt lat="42.71631" lon="0.68096">
        <ele>1925.66</ele>
        <time>2015-11-11T13:23:29Z</time>
      </trkpt>
      <trkpt lat="42.71633" lon="0.68091">
        <ele>1925.66</ele>
        <time>2015-11-11T13:23:33Z</time>
      </trkpt>
      <trkpt lat="42.71638" lon="0.68068">
        <ele>1923.25</ele>
        <time>2015-11-11T13:23:51Z</time>
      </trkpt>
      <trkpt lat="42.71643" lon="0.68049">
        <ele>1920.85</ele>
        <time>2015-11-11T13:24:08Z</time>
      </trkpt>
      <trkpt lat="42.71648" lon="0.68023">
        <ele>1918.93</ele>
        <time>2015-11-11T13:24:28Z</time>
      </trkpt>
      <trkpt lat="42.71653" lon="0.68002">
        <ele>1917.97</ele>
        <time>2015-11-11T13:24:46Z</time>
      </trkpt>
      <trkpt lat="42.71654" lon="0.67989">
        <ele>1917.49</ele>
        <time>2015-11-11T13:24:59Z</time>
      </trkpt>
      <trkpt lat="42.7166" lon="0.67966">
        <ele>1916.04</ele>
        <time>2015-11-11T13:25:17Z</time>
      </trkpt>
      <trkpt lat="42.71665" lon="0.67947">
        <ele>1915.56</ele>
        <time>2015-11-11T13:25:32Z</time>
      </trkpt>
      <trkpt lat="42.71668" lon="0.67933">
        <ele>1915.08</ele>
        <time>2015-11-11T13:25:42Z</time>
      </trkpt>
      <trkpt lat="42.71667" lon="0.67927">
        <ele>1914.6</ele>
        <time>2015-11-11T13:25:46Z</time>
      </trkpt>
      <trkpt lat="42.71671" lon="0.67901">
        <ele>1914.6</ele>
        <time>2015-11-11T13:26:04Z</time>
      </trkpt>
      <trkpt lat="42.71671" lon="0.67896">
        <ele>1914.6</ele>
        <time>2015-11-11T13:26:07Z</time>
      </trkpt>
      <trkpt lat="42.71673" lon="0.6788">
        <ele>1915.56</ele>
        <time>2015-11-11T13:26:19Z</time>
      </trkpt>
      <trkpt lat="42.71674" lon="0.6786">
        <ele>1917.01</ele>
        <time>2015-11-11T13:26:34Z</time>
      </trkpt>
      <trkpt lat="42.71673" lon="0.67839">
        <ele>1917.49</ele>
        <time>2015-11-11T13:26:50Z</time>
      </trkpt>
      <trkpt lat="42.71673" lon="0.67829">
        <ele>1917.49</ele>
        <time>2015-11-11T13:27:06Z</time>
      </trkpt>
      <trkpt lat="42.71673" lon="0.67825">
        <ele>1916.04</ele>
        <time>2015-11-11T13:27:15Z</time>
      </trkpt>
      <trkpt lat="42.71672" lon="0.67817">
        <ele>1915.56</ele>
        <time>2015-11-11T13:27:25Z</time>
      </trkpt>
      <trkpt lat="42.71673" lon="0.67812">
        <ele>1914.6</ele>
        <time>2015-11-11T13:27:34Z</time>
      </trkpt>
      <trkpt lat="42.71673" lon="0.67801">
        <ele>1912.68</ele>
        <time>2015-11-11T13:27:43Z</time>
      </trkpt>
      <trkpt lat="42.71677" lon="0.67785">
        <ele>1910.76</ele>
        <time>2015-11-11T13:27:56Z</time>
      </trkpt>
      <trkpt lat="42.71681" lon="0.67776">
        <ele>1905.95</ele>
        <time>2015-11-11T13:28:04Z</time>
      </trkpt>
      <trkpt lat="42.71681" lon="0.67775">
        <ele>1910.28</ele>
        <time>2015-11-11T13:28:05Z</time>
      </trkpt>
      <trkpt lat="42.7168" lon="0.67774">
        <ele>1908.35</ele>
        <time>2015-11-11T13:28:06Z</time>
      </trkpt>
      <trkpt lat="42.71667" lon="0.67772">
        <ele>1908.83</ele>
        <time>2015-11-11T13:28:21Z</time>
      </trkpt>
      <trkpt lat="42.71659" lon="0.67773">
        <ele>1905.47</ele>
        <time>2015-11-11T13:28:28Z</time>
      </trkpt>
      <trkpt lat="42.71646" lon="0.67773">
        <ele>1903.55</ele>
        <time>2015-11-11T13:28:43Z</time>
      </trkpt>
      <trkpt lat="42.71638" lon="0.67759">
        <ele>1900.66</ele>
        <time>2015-11-11T13:29:00Z</time>
      </trkpt>
      <trkpt lat="42.71638" lon="0.67755">
        <ele>1900.66</ele>
        <time>2015-11-11T13:29:03Z</time>
      </trkpt>
      <trkpt lat="42.71643" lon="0.67743">
        <ele>1897.3</ele>
        <time>2015-11-11T13:29:17Z</time>
      </trkpt>
      <trkpt lat="42.71644" lon="0.67743">
        <ele>1897.3</ele>
        <time>2015-11-11T13:29:18Z</time>
      </trkpt>
      <trkpt lat="42.71653" lon="0.67719">
        <ele>1894.42</ele>
        <time>2015-11-11T13:29:38Z</time>
      </trkpt>
      <trkpt lat="42.71659" lon="0.67698">
        <ele>1892.01</ele>
        <time>2015-11-11T13:29:55Z</time>
      </trkpt>
      <trkpt lat="42.71664" lon="0.67685">
        <ele>1889.13</ele>
        <time>2015-11-11T13:30:09Z</time>
      </trkpt>
      <trkpt lat="42.71665" lon="0.67666">
        <ele>1887.69</ele>
        <time>2015-11-11T13:30:25Z</time>
      </trkpt>
      <trkpt lat="42.7166" lon="0.67659">
        <ele>1887.21</ele>
        <time>2015-11-11T13:30:34Z</time>
      </trkpt>
      <trkpt lat="42.71653" lon="0.67654">
        <ele>1887.21</ele>
        <time>2015-11-11T13:30:42Z</time>
      </trkpt>
      <trkpt lat="42.71651" lon="0.67653">
        <ele>1887.21</ele>
        <time>2015-11-11T13:30:44Z</time>
      </trkpt>
      <trkpt lat="42.71648" lon="0.67653">
        <ele>1887.21</ele>
        <time>2015-11-11T13:30:48Z</time>
      </trkpt>
      <trkpt lat="42.71645" lon="0.67652">
        <ele>1888.17</ele>
        <time>2015-11-11T13:30:58Z</time>
      </trkpt>
      <trkpt lat="42.71644" lon="0.67648">
        <ele>1888.17</ele>
        <time>2015-11-11T13:31:03Z</time>
      </trkpt>
      <trkpt lat="42.71644" lon="0.67638">
        <ele>1886.72</ele>
        <time>2015-11-11T13:31:10Z</time>
      </trkpt>
      <trkpt lat="42.71641" lon="0.67631">
        <ele>1885.76</ele>
        <time>2015-11-11T13:31:17Z</time>
      </trkpt>
      <trkpt lat="42.71639" lon="0.67617">
        <ele>1883.84</ele>
        <time>2015-11-11T13:31:30Z</time>
      </trkpt>
      <trkpt lat="42.71643" lon="0.67613">
        <ele>1882.4</ele>
        <time>2015-11-11T13:31:40Z</time>
      </trkpt>
      <trkpt lat="42.71652" lon="0.67605">
        <ele>1879.03</ele>
        <time>2015-11-11T13:31:54Z</time>
      </trkpt>
      <trkpt lat="42.71657" lon="0.67593">
        <ele>1875.67</ele>
        <time>2015-11-11T13:32:08Z</time>
      </trkpt>
      <trkpt lat="42.71661" lon="0.67585">
        <ele>1873.27</ele>
        <time>2015-11-11T13:32:24Z</time>
      </trkpt>
      <trkpt lat="42.71663" lon="0.67581">
        <ele>1871.82</ele>
        <time>2015-11-11T13:32:38Z</time>
      </trkpt>
      <trkpt lat="42.71667" lon="0.67566">
        <ele>1867.98</ele>
        <time>2015-11-11T13:32:52Z</time>
      </trkpt>
      <trkpt lat="42.71667" lon="0.67556">
        <ele>1865.09</ele>
        <time>2015-11-11T13:33:03Z</time>
      </trkpt>
      <trkpt lat="42.7167" lon="0.67543">
        <ele>1861.25</ele>
        <time>2015-11-11T13:33:16Z</time>
      </trkpt>
      <trkpt lat="42.71671" lon="0.6753">
        <ele>1858.37</ele>
        <time>2015-11-11T13:33:28Z</time>
      </trkpt>
      <trkpt lat="42.71677" lon="0.67526">
        <ele>1855</ele>
        <time>2015-11-11T13:33:40Z</time>
      </trkpt>
      <trkpt lat="42.71682" lon="0.67514">
        <ele>1852.12</ele>
        <time>2015-11-11T13:33:52Z</time>
      </trkpt>
      <trkpt lat="42.71688" lon="0.67502">
        <ele>1848.27</ele>
        <time>2015-11-11T13:34:06Z</time>
      </trkpt>
      <trkpt lat="42.71689" lon="0.67488">
        <ele>1845.87</ele>
        <time>2015-11-11T13:34:18Z</time>
      </trkpt>
      <trkpt lat="42.71689" lon="0.67485">
        <ele>1844.91</ele>
        <time>2015-11-11T13:34:31Z</time>
      </trkpt>
      <trkpt lat="42.71696" lon="0.67479">
        <ele>1843.47</ele>
        <time>2015-11-11T13:34:49Z</time>
      </trkpt>
      <trkpt lat="42.71706" lon="0.67469">
        <ele>1841.06</ele>
        <time>2015-11-11T13:35:03Z</time>
      </trkpt>
      <trkpt lat="42.71712" lon="0.67452">
        <ele>1839.14</ele>
        <time>2015-11-11T13:35:17Z</time>
      </trkpt>
      <trkpt lat="42.71716" lon="0.67441">
        <ele>1838.18</ele>
        <time>2015-11-11T13:35:27Z</time>
      </trkpt>
      <trkpt lat="42.71726" lon="0.67425">
        <ele>1835.77</ele>
        <time>2015-11-11T13:35:44Z</time>
      </trkpt>
      <trkpt lat="42.71727" lon="0.67422">
        <ele>1835.29</ele>
        <time>2015-11-11T13:35:47Z</time>
      </trkpt>
      <trkpt lat="42.71735" lon="0.67409">
        <ele>1833.37</ele>
        <time>2015-11-11T13:36:01Z</time>
      </trkpt>
      <trkpt lat="42.71739" lon="0.67397">
        <ele>1831.45</ele>
        <time>2015-11-11T13:36:15Z</time>
      </trkpt>
      <trkpt lat="42.71746" lon="0.67384">
        <ele>1829.05</ele>
        <time>2015-11-11T13:36:30Z</time>
      </trkpt>
      <trkpt lat="42.71754" lon="0.67368">
        <ele>1825.68</ele>
        <time>2015-11-11T13:36:47Z</time>
      </trkpt>
      <trkpt lat="42.71763" lon="0.67353">
        <ele>1823.28</ele>
        <time>2015-11-11T13:37:03Z</time>
      </trkpt>
      <trkpt lat="42.7177" lon="0.67339">
        <ele>1820.87</ele>
        <time>2015-11-11T13:37:18Z</time>
      </trkpt>
      <trkpt lat="42.71778" lon="0.67325">
        <ele>1817.99</ele>
        <time>2015-11-11T13:37:32Z</time>
      </trkpt>
      <trkpt lat="42.71778" lon="0.6731">
        <ele>1815.59</ele>
        <time>2015-11-11T13:37:44Z</time>
      </trkpt>
      <trkpt lat="42.71778" lon="0.67305">
        <ele>1815.11</ele>
        <time>2015-11-11T13:37:48Z</time>
      </trkpt>
      <trkpt lat="42.71781" lon="0.67293">
        <ele>1813.18</ele>
        <time>2015-11-11T13:37:56Z</time>
      </trkpt>
      <trkpt lat="42.71788" lon="0.67275">
        <ele>1810.3</ele>
        <time>2015-11-11T13:38:12Z</time>
      </trkpt>
      <trkpt lat="42.71797" lon="0.67257">
        <ele>1808.86</ele>
        <time>2015-11-11T13:38:27Z</time>
      </trkpt>
      <trkpt lat="42.71803" lon="0.67237">
        <ele>1807.42</ele>
        <time>2015-11-11T13:38:43Z</time>
      </trkpt>
      <trkpt lat="42.71811" lon="0.67214">
        <ele>1805.49</ele>
        <time>2015-11-11T13:39:00Z</time>
      </trkpt>
      <trkpt lat="42.71812" lon="0.67213">
        <ele>1805.49</ele>
        <time>2015-11-11T13:39:01Z</time>
      </trkpt>
      <trkpt lat="42.71812" lon="0.6721">
        <ele>1805.49</ele>
        <time>2015-11-11T13:39:03Z</time>
      </trkpt>
      <trkpt lat="42.7182" lon="0.67186">
        <ele>1803.57</ele>
        <time>2015-11-11T13:39:20Z</time>
      </trkpt>
      <trkpt lat="42.71828" lon="0.67161">
        <ele>1803.09</ele>
        <time>2015-11-11T13:39:38Z</time>
      </trkpt>
      <trkpt lat="42.71833" lon="0.67136">
        <ele>1799.73</ele>
        <time>2015-11-11T13:39:56Z</time>
      </trkpt>
      <trkpt lat="42.71838" lon="0.67112">
        <ele>1797.8</ele>
        <time>2015-11-11T13:40:14Z</time>
      </trkpt>
      <trkpt lat="42.7184" lon="0.67101">
        <ele>1796.84</ele>
        <time>2015-11-11T13:40:29Z</time>
      </trkpt>
      <trkpt lat="42.71842" lon="0.67087">
        <ele>1794.92</ele>
        <time>2015-11-11T13:40:42Z</time>
      </trkpt>
      <trkpt lat="42.71847" lon="0.67072">
        <ele>1791.55</ele>
        <time>2015-11-11T13:40:56Z</time>
      </trkpt>
      <trkpt lat="42.71853" lon="0.67054">
        <ele>1788.19</ele>
        <time>2015-11-11T13:41:12Z</time>
      </trkpt>
      <trkpt lat="42.71855" lon="0.67047">
        <ele>1786.75</ele>
        <time>2015-11-11T13:41:28Z</time>
      </trkpt>
      <trkpt lat="42.71855" lon="0.67041">
        <ele>1786.27</ele>
        <time>2015-11-11T13:41:45Z</time>
      </trkpt>
      <trkpt lat="42.71853" lon="0.67039">
        <ele>1785.31</ele>
        <time>2015-11-11T13:42:04Z</time>
      </trkpt>
      <trkpt lat="42.71853" lon="0.67037">
        <ele>1785.31</ele>
        <time>2015-11-11T13:42:24Z</time>
      </trkpt>
      <trkpt lat="42.71852" lon="0.67036">
        <ele>1785.31</ele>
        <time>2015-11-11T13:42:44Z</time>
      </trkpt>
      <trkpt lat="42.71852" lon="0.67035">
        <ele>1784.82</ele>
        <time>2015-11-11T13:43:00Z</time>
      </trkpt>
      <trkpt lat="42.71855" lon="0.67034">
        <ele>1783.86</ele>
        <time>2015-11-11T13:43:11Z</time>
      </trkpt>
      <trkpt lat="42.71858" lon="0.67023">
        <ele>1795.4</ele>
        <time>2015-11-11T13:53:11Z</time>
      </trkpt>
      <trkpt lat="42.71859" lon="0.67012">
        <ele>1791.55</ele>
        <time>2015-11-11T13:53:14Z</time>
      </trkpt>
      <trkpt lat="42.71859" lon="0.67008">
        <ele>1789.15</ele>
        <time>2015-11-11T13:53:17Z</time>
      </trkpt>
      <trkpt lat="42.7186" lon="0.67">
        <ele>1784.82</ele>
        <time>2015-11-11T13:53:22Z</time>
      </trkpt>
      <trkpt lat="42.71862" lon="0.66988">
        <ele>1780.98</ele>
        <time>2015-11-11T13:53:27Z</time>
      </trkpt>
      <trkpt lat="42.71862" lon="0.6698">
        <ele>1777.61</ele>
        <time>2015-11-11T13:53:32Z</time>
      </trkpt>
      <trkpt lat="42.71863" lon="0.66978">
        <ele>1774.25</ele>
        <time>2015-11-11T13:53:37Z</time>
      </trkpt>
      <trkpt lat="42.71863" lon="0.66974">
        <ele>1770.89</ele>
        <time>2015-11-11T13:53:43Z</time>
      </trkpt>
      <trkpt lat="42.71863" lon="0.66968">
        <ele>1769.44</ele>
        <time>2015-11-11T13:53:48Z</time>
      </trkpt>
      <trkpt lat="42.7186" lon="0.66965">
        <ele>1766.56</ele>
        <time>2015-11-11T13:53:55Z</time>
      </trkpt>
      <trkpt lat="42.7186" lon="0.66951">
        <ele>1763.68</ele>
        <time>2015-11-11T13:54:06Z</time>
      </trkpt>
      <trkpt lat="42.71859" lon="0.66933">
        <ele>1788.19</ele>
        <time>2015-11-11T13:54:20Z</time>
      </trkpt>
      <trkpt lat="42.71859" lon="0.66932">
        <ele>1760.79</ele>
        <time>2015-11-11T13:54:21Z</time>
      </trkpt>
      <trkpt lat="42.71858" lon="0.66917">
        <ele>1759.35</ele>
        <time>2015-11-11T13:54:34Z</time>
      </trkpt>
      <trkpt lat="42.71857" lon="0.6689">
        <ele>1756.47</ele>
        <time>2015-11-11T13:54:51Z</time>
      </trkpt>
      <trkpt lat="42.71858" lon="0.6687">
        <ele>1755.02</ele>
        <time>2015-11-11T13:55:07Z</time>
      </trkpt>
      <trkpt lat="42.71857" lon="0.66846">
        <ele>1753.1</ele>
        <time>2015-11-11T13:55:24Z</time>
      </trkpt>
      <trkpt lat="42.71856" lon="0.66836">
        <ele>1753.1</ele>
        <time>2015-11-11T13:55:31Z</time>
      </trkpt>
      <trkpt lat="42.71853" lon="0.66833">
        <ele>1751.66</ele>
        <time>2015-11-11T13:55:42Z</time>
      </trkpt>
      <trkpt lat="42.71853" lon="0.66832">
        <ele>1751.18</ele>
        <time>2015-11-11T13:55:59Z</time>
      </trkpt>
      <trkpt lat="42.71854" lon="0.66824">
        <ele>1751.18</ele>
        <time>2015-11-11T13:56:08Z</time>
      </trkpt>
      <trkpt lat="42.71852" lon="0.66802">
        <ele>1749.26</ele>
        <time>2015-11-11T13:56:25Z</time>
      </trkpt>
      <trkpt lat="42.7185" lon="0.66778">
        <ele>1746.37</ele>
        <time>2015-11-11T13:56:43Z</time>
      </trkpt>
      <trkpt lat="42.71851" lon="0.66771">
        <ele>1744.93</ele>
        <time>2015-11-11T13:56:57Z</time>
      </trkpt>
      <trkpt lat="42.71854" lon="0.66768">
        <ele>1744.45</ele>
        <time>2015-11-11T13:57:09Z</time>
      </trkpt>
      <trkpt lat="42.71855" lon="0.6677">
        <ele>1744.45</ele>
        <time>2015-11-11T13:57:30Z</time>
      </trkpt>
      <trkpt lat="42.71856" lon="0.66768">
        <ele>1744.45</ele>
        <time>2015-11-11T13:57:48Z</time>
      </trkpt>
      <trkpt lat="42.71855" lon="0.66765">
        <ele>1744.45</ele>
        <time>2015-11-11T13:58:11Z</time>
      </trkpt>
      <trkpt lat="42.71852" lon="0.66754">
        <ele>1743.49</ele>
        <time>2015-11-11T13:58:26Z</time>
      </trkpt>
      <trkpt lat="42.71849" lon="0.66737">
        <ele>1741.08</ele>
        <time>2015-11-11T13:58:42Z</time>
      </trkpt>
      <trkpt lat="42.71847" lon="0.6671">
        <ele>1738.68</ele>
        <time>2015-11-11T13:59:01Z</time>
      </trkpt>
      <trkpt lat="42.71846" lon="0.66685">
        <ele>1736.28</ele>
        <time>2015-11-11T13:59:18Z</time>
      </trkpt>
      <trkpt lat="42.71843" lon="0.66655">
        <ele>1733.88</ele>
        <time>2015-11-11T13:59:37Z</time>
      </trkpt>
      <trkpt lat="42.71842" lon="0.66632">
        <ele>1731.95</ele>
        <time>2015-11-11T13:59:53Z</time>
      </trkpt>
      <trkpt lat="42.7184" lon="0.66603">
        <ele>1729.55</ele>
        <time>2015-11-11T14:00:12Z</time>
      </trkpt>
      <trkpt lat="42.71839" lon="0.66585">
        <ele>1726.67</ele>
        <time>2015-11-11T14:00:27Z</time>
      </trkpt>
      <trkpt lat="42.71839" lon="0.66566">
        <ele>1723.3</ele>
        <time>2015-11-11T14:00:42Z</time>
      </trkpt>
      <trkpt lat="42.7184" lon="0.66546">
        <ele>1721.38</ele>
        <time>2015-11-11T14:00:57Z</time>
      </trkpt>
      <trkpt lat="42.71841" lon="0.66541">
        <ele>1721.38</ele>
        <time>2015-11-11T14:01:01Z</time>
      </trkpt>
      <trkpt lat="42.71847" lon="0.6653">
        <ele>1720.9</ele>
        <time>2015-11-11T14:01:11Z</time>
      </trkpt>
      <trkpt lat="42.71859" lon="0.66518">
        <ele>1718.01</ele>
        <time>2015-11-11T14:01:29Z</time>
      </trkpt>
      <trkpt lat="42.71861" lon="0.66513">
        <ele>1718.01</ele>
        <time>2015-11-11T14:01:34Z</time>
      </trkpt>
      <trkpt lat="42.71855" lon="0.66496">
        <ele>1716.09</ele>
        <time>2015-11-11T14:01:53Z</time>
      </trkpt>
      <trkpt lat="42.71857" lon="0.6648">
        <ele>1712.73</ele>
        <time>2015-11-11T14:02:09Z</time>
      </trkpt>
      <trkpt lat="42.7186" lon="0.6647">
        <ele>1709.36</ele>
        <time>2015-11-11T14:02:23Z</time>
      </trkpt>
      <trkpt lat="42.71857" lon="0.6646">
        <ele>1706.96</ele>
        <time>2015-11-11T14:02:37Z</time>
      </trkpt>
      <trkpt lat="42.71869" lon="0.66453">
        <ele>1704.07</ele>
        <time>2015-11-11T14:02:52Z</time>
      </trkpt>
      <trkpt lat="42.71866" lon="0.66447">
        <ele>1701.67</ele>
        <time>2015-11-11T14:03:04Z</time>
      </trkpt>
      <trkpt lat="42.71872" lon="0.66437">
        <ele>1698.79</ele>
        <time>2015-11-11T14:03:20Z</time>
      </trkpt>
      <trkpt lat="42.71873" lon="0.66437">
        <ele>1698.79</ele>
        <time>2015-11-11T14:03:21Z</time>
      </trkpt>
      <trkpt lat="42.71883" lon="0.66442">
        <ele>1695.9</ele>
        <time>2015-11-11T14:03:36Z</time>
      </trkpt>
      <trkpt lat="42.71886" lon="0.66435">
        <ele>1693.5</ele>
        <time>2015-11-11T14:03:48Z</time>
      </trkpt>
      <trkpt lat="42.71891" lon="0.66434">
        <ele>1692.54</ele>
        <time>2015-11-11T14:04:05Z</time>
      </trkpt>
      <trkpt lat="42.71896" lon="0.66431">
        <ele>1691.58</ele>
        <time>2015-11-11T14:04:20Z</time>
      </trkpt>
      <trkpt lat="42.71901" lon="0.66429">
        <ele>1690.14</ele>
        <time>2015-11-11T14:04:36Z</time>
      </trkpt>
      <trkpt lat="42.71901" lon="0.66423">
        <ele>1689.65</ele>
        <time>2015-11-11T14:04:56Z</time>
      </trkpt>
      <trkpt lat="42.71905" lon="0.66416">
        <ele>1687.73</ele>
        <time>2015-11-11T14:05:10Z</time>
      </trkpt>
      <trkpt lat="42.71905" lon="0.66416">
        <ele>1687.25</ele>
        <time>2015-11-11T14:05:11Z</time>
      </trkpt>
      <trkpt lat="42.71917" lon="0.66413">
        <ele>1684.85</ele>
        <time>2015-11-11T14:05:27Z</time>
      </trkpt>
      <trkpt lat="42.7192" lon="0.66414">
        <ele>1684.37</ele>
        <time>2015-11-11T14:05:44Z</time>
      </trkpt>
      <trkpt lat="42.71922" lon="0.66411">
        <ele>1683.89</ele>
        <time>2015-11-11T14:05:49Z</time>
      </trkpt>
      <trkpt lat="42.71923" lon="0.66407">
        <ele>1683.89</ele>
        <time>2015-11-11T14:05:52Z</time>
      </trkpt>
      <trkpt lat="42.71932" lon="0.66391">
        <ele>1680.04</ele>
        <time>2015-11-11T14:06:08Z</time>
      </trkpt>
      <trkpt lat="42.71938" lon="0.66373">
        <ele>1677.16</ele>
        <time>2015-11-11T14:06:22Z</time>
      </trkpt>
      <trkpt lat="42.71948" lon="0.66354">
        <ele>1674.27</ele>
        <time>2015-11-11T14:06:39Z</time>
      </trkpt>
      <trkpt lat="42.71954" lon="0.66347">
        <ele>1671.39</ele>
        <time>2015-11-11T14:06:52Z</time>
      </trkpt>
      <trkpt lat="42.71962" lon="0.66339">
        <ele>1668.51</ele>
        <time>2015-11-11T14:07:06Z</time>
      </trkpt>
      <trkpt lat="42.71964" lon="0.66325">
        <ele>1665.14</ele>
        <time>2015-11-11T14:07:20Z</time>
      </trkpt>
      <trkpt lat="42.71973" lon="0.66315">
        <ele>1661.78</ele>
        <time>2015-11-11T14:07:36Z</time>
      </trkpt>
      <trkpt lat="42.71978" lon="0.66307">
        <ele>1660.33</ele>
        <time>2015-11-11T14:07:45Z</time>
      </trkpt>
      <trkpt lat="42.71982" lon="0.66282">
        <ele>1657.93</ele>
        <time>2015-11-11T14:08:03Z</time>
      </trkpt>
      <trkpt lat="42.71985" lon="0.66259">
        <ele>1655.53</ele>
        <time>2015-11-11T14:08:22Z</time>
      </trkpt>
      <trkpt lat="42.71995" lon="0.66245">
        <ele>1651.68</ele>
        <time>2015-11-11T14:08:41Z</time>
      </trkpt>
      <trkpt lat="42.72008" lon="0.66234">
        <ele>1648.8</ele>
        <time>2015-11-11T14:08:57Z</time>
      </trkpt>
      <trkpt lat="42.72009" lon="0.66226">
        <ele>1646.88</ele>
        <time>2015-11-11T14:09:05Z</time>
      </trkpt>
      <trkpt lat="42.7201" lon="0.66215">
        <ele>1643.51</ele>
        <time>2015-11-11T14:09:15Z</time>
      </trkpt>
      <trkpt lat="42.72012" lon="0.662">
        <ele>1640.63</ele>
        <time>2015-11-11T14:09:29Z</time>
      </trkpt>
      <trkpt lat="42.72015" lon="0.66183">
        <ele>1636.78</ele>
        <time>2015-11-11T14:09:46Z</time>
      </trkpt>
      <trkpt lat="42.72006" lon="0.66185">
        <ele>1633.42</ele>
        <time>2015-11-11T14:10:00Z</time>
      </trkpt>
      <trkpt lat="42.71996" lon="0.66191">
        <ele>1631.49</ele>
        <time>2015-11-11T14:10:16Z</time>
      </trkpt>
      <trkpt lat="42.71992" lon="0.66195">
        <ele>1629.57</ele>
        <time>2015-11-11T14:10:30Z</time>
      </trkpt>
      <trkpt lat="42.71987" lon="0.66195">
        <ele>1626.69</ele>
        <time>2015-11-11T14:10:42Z</time>
      </trkpt>
      <trkpt lat="42.71976" lon="0.66194">
        <ele>1623.32</ele>
        <time>2015-11-11T14:10:56Z</time>
      </trkpt>
      <trkpt lat="42.71968" lon="0.66195">
        <ele>1621.4</ele>
        <time>2015-11-11T14:11:07Z</time>
      </trkpt>
      <trkpt lat="42.71957" lon="0.66191">
        <ele>1619.48</ele>
        <time>2015-11-11T14:11:23Z</time>
      </trkpt>
      <trkpt lat="42.71947" lon="0.66195">
        <ele>1616.59</ele>
        <time>2015-11-11T14:11:38Z</time>
      </trkpt>
      <trkpt lat="42.71936" lon="0.66202">
        <ele>1614.19</ele>
        <time>2015-11-11T14:11:55Z</time>
      </trkpt>
      <trkpt lat="42.71926" lon="0.66206">
        <ele>1611.31</ele>
        <time>2015-11-11T14:12:10Z</time>
      </trkpt>
      <trkpt lat="42.71912" lon="0.66219">
        <ele>1609.86</ele>
        <time>2015-11-11T14:12:29Z</time>
      </trkpt>
      <trkpt lat="42.71906" lon="0.66218">
        <ele>1607.46</ele>
        <time>2015-11-11T14:12:44Z</time>
      </trkpt>
      <trkpt lat="42.71914" lon="0.66206">
        <ele>1604.58</ele>
        <time>2015-11-11T14:12:58Z</time>
      </trkpt>
      <trkpt lat="42.7192" lon="0.66195">
        <ele>1601.21</ele>
        <time>2015-11-11T14:13:10Z</time>
      </trkpt>
      <trkpt lat="42.71925" lon="0.66188">
        <ele>1600.25</ele>
        <time>2015-11-11T14:13:18Z</time>
      </trkpt>
      <trkpt lat="42.71932" lon="0.66174">
        <ele>1597.37</ele>
        <time>2015-11-11T14:13:31Z</time>
      </trkpt>
      <trkpt lat="42.71938" lon="0.66162">
        <ele>1594.48</ele>
        <time>2015-11-11T14:13:44Z</time>
      </trkpt>
      <trkpt lat="42.71945" lon="0.66152">
        <ele>1591.12</ele>
        <time>2015-11-11T14:13:57Z</time>
      </trkpt>
      <trkpt lat="42.71949" lon="0.66142">
        <ele>1588.24</ele>
        <time>2015-11-11T14:14:12Z</time>
      </trkpt>
      <trkpt lat="42.71941" lon="0.66146">
        <ele>1586.79</ele>
        <time>2015-11-11T14:14:23Z</time>
      </trkpt>
      <trkpt lat="42.71931" lon="0.6615">
        <ele>1583.43</ele>
        <time>2015-11-11T14:14:39Z</time>
      </trkpt>
      <trkpt lat="42.71922" lon="0.66152">
        <ele>1580.54</ele>
        <time>2015-11-11T14:14:54Z</time>
      </trkpt>
      <trkpt lat="42.71911" lon="0.66156">
        <ele>1577.18</ele>
        <time>2015-11-11T14:15:08Z</time>
      </trkpt>
      <trkpt lat="42.71901" lon="0.66158">
        <ele>1573.82</ele>
        <time>2015-11-11T14:15:23Z</time>
      </trkpt>
      <trkpt lat="42.71894" lon="0.6616">
        <ele>1571.89</ele>
        <time>2015-11-11T14:15:36Z</time>
      </trkpt>
      <trkpt lat="42.71886" lon="0.66167">
        <ele>1568.53</ele>
        <time>2015-11-11T14:15:52Z</time>
      </trkpt>
      <trkpt lat="42.71884" lon="0.66168">
        <ele>1568.05</ele>
        <time>2015-11-11T14:16:06Z</time>
      </trkpt>
      <trkpt lat="42.7188" lon="0.66172">
        <ele>1567.09</ele>
        <time>2015-11-11T14:16:20Z</time>
      </trkpt>
      <trkpt lat="42.71872" lon="0.66176">
        <ele>1566.12</ele>
        <time>2015-11-11T14:16:34Z</time>
      </trkpt>
      <trkpt lat="42.71865" lon="0.66183">
        <ele>1564.2</ele>
        <time>2015-11-11T14:16:47Z</time>
      </trkpt>
      <trkpt lat="42.71862" lon="0.66183">
        <ele>1564.2</ele>
        <time>2015-11-11T14:17:03Z</time>
      </trkpt>
      <trkpt lat="42.71861" lon="0.66183">
        <ele>1563.72</ele>
        <time>2015-11-11T14:17:18Z</time>
      </trkpt>
      <trkpt lat="42.71862" lon="0.66185">
        <ele>1563.72</ele>
        <time>2015-11-11T14:17:36Z</time>
      </trkpt>
      <trkpt lat="42.7186" lon="0.66186">
        <ele>1563.72</ele>
        <time>2015-11-11T14:17:59Z</time>
      </trkpt>
      <trkpt lat="42.71857" lon="0.66194">
        <ele>1563.24</ele>
        <time>2015-11-11T14:18:12Z</time>
      </trkpt>
      <trkpt lat="42.71847" lon="0.66205">
        <ele>1559.88</ele>
        <time>2015-11-11T14:18:28Z</time>
      </trkpt>
      <trkpt lat="42.71842" lon="0.66215">
        <ele>1558.43</ele>
        <time>2015-11-11T14:18:41Z</time>
      </trkpt>
      <trkpt lat="42.71833" lon="0.66227">
        <ele>1556.51</ele>
        <time>2015-11-11T14:18:53Z</time>
      </trkpt>
      <trkpt lat="42.71823" lon="0.66236">
        <ele>1553.63</ele>
        <time>2015-11-11T14:19:05Z</time>
      </trkpt>
      <trkpt lat="42.71813" lon="0.66241">
        <ele>1551.22</ele>
        <time>2015-11-11T14:19:19Z</time>
      </trkpt>
      <trkpt lat="42.71796" lon="0.66249">
        <ele>1549.3</ele>
        <time>2015-11-11T14:19:34Z</time>
      </trkpt>
      <trkpt lat="42.71783" lon="0.66257">
        <ele>1547.38</ele>
        <time>2015-11-11T14:19:51Z</time>
      </trkpt>
      <trkpt lat="42.71777" lon="0.66268">
        <ele>1548.34</ele>
        <time>2015-11-11T14:20:05Z</time>
      </trkpt>
      <trkpt lat="42.71767" lon="0.66284">
        <ele>1546.42</ele>
        <time>2015-11-11T14:20:22Z</time>
      </trkpt>
      <trkpt lat="42.71756" lon="0.6629">
        <ele>1544.01</ele>
        <time>2015-11-11T14:20:38Z</time>
      </trkpt>
      <trkpt lat="42.71758" lon="0.6628">
        <ele>1541.13</ele>
        <time>2015-11-11T14:20:53Z</time>
      </trkpt>
      <trkpt lat="42.71762" lon="0.66266">
        <ele>1538.25</ele>
        <time>2015-11-11T14:21:11Z</time>
      </trkpt>
      <trkpt lat="42.71764" lon="0.66253">
        <ele>1535.84</ele>
        <time>2015-11-11T14:21:24Z</time>
      </trkpt>
      <trkpt lat="42.71765" lon="0.66238">
        <ele>1532.96</ele>
        <time>2015-11-11T14:21:39Z</time>
      </trkpt>
      <trkpt lat="42.7177" lon="0.66222">
        <ele>1529.59</ele>
        <time>2015-11-11T14:21:57Z</time>
      </trkpt>
      <trkpt lat="42.71774" lon="0.66209">
        <ele>1527.19</ele>
        <time>2015-11-11T14:22:12Z</time>
      </trkpt>
      <trkpt lat="42.71782" lon="0.66196">
        <ele>1524.31</ele>
        <time>2015-11-11T14:22:27Z</time>
      </trkpt>
      <trkpt lat="42.71792" lon="0.66184">
        <ele>1521.9</ele>
        <time>2015-11-11T14:22:42Z</time>
      </trkpt>
      <trkpt lat="42.71798" lon="0.66174">
        <ele>1519.98</ele>
        <time>2015-11-11T14:22:56Z</time>
      </trkpt>
      <trkpt lat="42.71802" lon="0.6616">
        <ele>1518.54</ele>
        <time>2015-11-11T14:23:07Z</time>
      </trkpt>
      <trkpt lat="42.71806" lon="0.66142">
        <ele>1516.14</ele>
        <time>2015-11-11T14:23:22Z</time>
      </trkpt>
      <trkpt lat="42.71812" lon="0.66124">
        <ele>1513.25</ele>
        <time>2015-11-11T14:23:36Z</time>
      </trkpt>
      <trkpt lat="42.71815" lon="0.66112">
        <ele>1510.85</ele>
        <time>2015-11-11T14:23:48Z</time>
      </trkpt>
      <trkpt lat="42.71823" lon="0.66094">
        <ele>1507.48</ele>
        <time>2015-11-11T14:24:04Z</time>
      </trkpt>
      <trkpt lat="42.7183" lon="0.66075">
        <ele>1504.12</ele>
        <time>2015-11-11T14:24:19Z</time>
      </trkpt>
      <trkpt lat="42.71838" lon="0.6606">
        <ele>1501.24</ele>
        <time>2015-11-11T14:24:34Z</time>
      </trkpt>
      <trkpt lat="42.71845" lon="0.66045">
        <ele>1498.35</ele>
        <time>2015-11-11T14:24:49Z</time>
      </trkpt>
      <trkpt lat="42.71851" lon="0.66031">
        <ele>1494.99</ele>
        <time>2015-11-11T14:25:04Z</time>
      </trkpt>
      <trkpt lat="42.71859" lon="0.66014">
        <ele>1491.62</ele>
        <time>2015-11-11T14:25:19Z</time>
      </trkpt>
      <trkpt lat="42.71861" lon="0.66003">
        <ele>1489.22</ele>
        <time>2015-11-11T14:25:34Z</time>
      </trkpt>
      <trkpt lat="42.71866" lon="0.6599">
        <ele>1486.34</ele>
        <time>2015-11-11T14:25:49Z</time>
      </trkpt>
      <trkpt lat="42.7186" lon="0.65988">
        <ele>1483.93</ele>
        <time>2015-11-11T14:26:03Z</time>
      </trkpt>
      <trkpt lat="42.71853" lon="0.65988">
        <ele>1482.97</ele>
        <time>2015-11-11T14:26:20Z</time>
      </trkpt>
      <trkpt lat="42.7185" lon="0.65988">
        <ele>1482.49</ele>
        <time>2015-11-11T14:26:34Z</time>
      </trkpt>
      <trkpt lat="42.71852" lon="0.65987">
        <ele>1482.01</ele>
        <time>2015-11-11T14:26:58Z</time>
      </trkpt>
      <trkpt lat="42.71852" lon="0.65991">
        <ele>1481.53</ele>
        <time>2015-11-11T14:27:23Z</time>
      </trkpt>
      <trkpt lat="42.7185" lon="0.65989">
        <ele>1481.53</ele>
        <time>2015-11-11T14:27:43Z</time>
      </trkpt>
      <trkpt lat="42.71856" lon="0.65978">
        <ele>1479.61</ele>
        <time>2015-11-11T14:27:59Z</time>
      </trkpt>
      <trkpt lat="42.71861" lon="0.65966">
        <ele>1477.68</ele>
        <time>2015-11-11T14:28:17Z</time>
      </trkpt>
      <trkpt lat="42.71868" lon="0.65956">
        <ele>1474.8</ele>
        <time>2015-11-11T14:28:34Z</time>
      </trkpt>
      <trkpt lat="42.71873" lon="0.65945">
        <ele>1472.4</ele>
        <time>2015-11-11T14:28:50Z</time>
      </trkpt>
      <trkpt lat="42.71873" lon="0.65937">
        <ele>1469.99</ele>
        <time>2015-11-11T14:29:03Z</time>
      </trkpt>
      <trkpt lat="42.71864" lon="0.65938">
        <ele>1468.07</ele>
        <time>2015-11-11T14:29:18Z</time>
      </trkpt>
      <trkpt lat="42.71853" lon="0.65941">
        <ele>1466.15</ele>
        <time>2015-11-11T14:29:32Z</time>
      </trkpt>
      <trkpt lat="42.71839" lon="0.65946">
        <ele>1463.74</ele>
        <time>2015-11-11T14:29:48Z</time>
      </trkpt>
      <trkpt lat="42.71825" lon="0.65953">
        <ele>1461.82</ele>
        <time>2015-11-11T14:30:04Z</time>
      </trkpt>
      <trkpt lat="42.71814" lon="0.6596">
        <ele>1459.42</ele>
        <time>2015-11-11T14:30:20Z</time>
      </trkpt>
      <trkpt lat="42.71805" lon="0.65956">
        <ele>1457.02</ele>
        <time>2015-11-11T14:30:35Z</time>
      </trkpt>
      <trkpt lat="42.71812" lon="0.65945">
        <ele>1454.61</ele>
        <time>2015-11-11T14:30:50Z</time>
      </trkpt>
      <trkpt lat="42.7182" lon="0.65931">
        <ele>1452.21</ele>
        <time>2015-11-11T14:31:04Z</time>
      </trkpt>
      <trkpt lat="42.71827" lon="0.65916">
        <ele>1450.29</ele>
        <time>2015-11-11T14:31:16Z</time>
      </trkpt>
      <trkpt lat="42.71836" lon="0.659">
        <ele>1447.88</ele>
        <time>2015-11-11T14:31:32Z</time>
      </trkpt>
      <trkpt lat="42.71847" lon="0.65886">
        <ele>1445.48</ele>
        <time>2015-11-11T14:31:47Z</time>
      </trkpt>
      <trkpt lat="42.71856" lon="0.65872">
        <ele>1442.6</ele>
        <time>2015-11-11T14:32:02Z</time>
      </trkpt>
      <trkpt lat="42.7185" lon="0.65869">
        <ele>1440.67</ele>
        <time>2015-11-11T14:32:14Z</time>
      </trkpt>
      <trkpt lat="42.71834" lon="0.65871">
        <ele>1439.23</ele>
        <time>2015-11-11T14:32:30Z</time>
      </trkpt>
      <trkpt lat="42.71828" lon="0.65866">
        <ele>1436.35</ele>
        <time>2015-11-11T14:32:43Z</time>
      </trkpt>
      <trkpt lat="42.71836" lon="0.65855">
        <ele>1433.46</ele>
        <time>2015-11-11T14:33:00Z</time>
      </trkpt>
      <trkpt lat="42.71845" lon="0.65849">
        <ele>1431.54</ele>
        <time>2015-11-11T14:33:13Z</time>
      </trkpt>
      <trkpt lat="42.71858" lon="0.65842">
        <ele>1429.62</ele>
        <time>2015-11-11T14:33:27Z</time>
      </trkpt>
      <trkpt lat="42.71871" lon="0.6584">
        <ele>1427.21</ele>
        <time>2015-11-11T14:33:41Z</time>
      </trkpt>
      <trkpt lat="42.7189" lon="0.6583">
        <ele>1425.77</ele>
        <time>2015-11-11T14:33:58Z</time>
      </trkpt>
      <trkpt lat="42.71896" lon="0.65824">
        <ele>1425.29</ele>
        <time>2015-11-11T14:34:04Z</time>
      </trkpt>
      <trkpt lat="42.71915" lon="0.65808">
        <ele>1423.37</ele>
        <time>2015-11-11T14:34:21Z</time>
      </trkpt>
      <trkpt lat="42.71929" lon="0.65791">
        <ele>1420.97</ele>
        <time>2015-11-11T14:34:34Z</time>
      </trkpt>
      <trkpt lat="42.71934" lon="0.65783">
        <ele>1419.52</ele>
        <time>2015-11-11T14:34:40Z</time>
      </trkpt>
      <trkpt lat="42.71938" lon="0.65779">
        <ele>1419.52</ele>
        <time>2015-11-11T14:34:44Z</time>
      </trkpt>
      <trkpt lat="42.71949" lon="0.65769">
        <ele>1417.12</ele>
        <time>2015-11-11T14:34:57Z</time>
      </trkpt>
      <trkpt lat="42.71958" lon="0.65766">
        <ele>1415.68</ele>
        <time>2015-11-11T14:35:10Z</time>
      </trkpt>
      <trkpt lat="42.71965" lon="0.65761">
        <ele>1413.76</ele>
        <time>2015-11-11T14:35:21Z</time>
      </trkpt>
      <trkpt lat="42.71978" lon="0.65752">
        <ele>1411.83</ele>
        <time>2015-11-11T14:35:34Z</time>
      </trkpt>
      <trkpt lat="42.71992" lon="0.65737">
        <ele>1408.95</ele>
        <time>2015-11-11T14:35:48Z</time>
      </trkpt>
      <trkpt lat="42.71998" lon="0.65718">
        <ele>1407.03</ele>
        <time>2015-11-11T14:36:01Z</time>
      </trkpt>
      <trkpt lat="42.72002" lon="0.65692">
        <ele>1405.1</ele>
        <time>2015-11-11T14:36:16Z</time>
      </trkpt>
      <trkpt lat="42.72005" lon="0.65672">
        <ele>1403.18</ele>
        <time>2015-11-11T14:36:31Z</time>
      </trkpt>
      <trkpt lat="42.72016" lon="0.65659">
        <ele>1401.26</ele>
        <time>2015-11-11T14:36:44Z</time>
      </trkpt>
      <trkpt lat="42.72026" lon="0.65636">
        <ele>1399.34</ele>
        <time>2015-11-11T14:37:02Z</time>
      </trkpt>
      <trkpt lat="42.72036" lon="0.65617">
        <ele>1396.93</ele>
        <time>2015-11-11T14:37:17Z</time>
      </trkpt>
      <trkpt lat="42.72046" lon="0.65597">
        <ele>1394.05</ele>
        <time>2015-11-11T14:37:34Z</time>
      </trkpt>
      <trkpt lat="42.72052" lon="0.65579">
        <ele>1391.65</ele>
        <time>2015-11-11T14:37:48Z</time>
      </trkpt>
      <trkpt lat="42.72056" lon="0.65567">
        <ele>1391.17</ele>
        <time>2015-11-11T14:38:00Z</time>
      </trkpt>
      <trkpt lat="42.72063" lon="0.65557">
        <ele>1390.68</ele>
        <time>2015-11-11T14:38:08Z</time>
      </trkpt>
      <trkpt lat="42.72064" lon="0.65556">
        <ele>1390.68</ele>
        <time>2015-11-11T14:38:09Z</time>
      </trkpt>
      <trkpt lat="42.72065" lon="0.65556">
        <ele>1390.68</ele>
        <time>2015-11-11T14:38:10Z</time>
      </trkpt>
      <trkpt lat="42.72074" lon="0.65543">
        <ele>1388.76</ele>
        <time>2015-11-11T14:38:23Z</time>
      </trkpt>
      <trkpt lat="42.72083" lon="0.65529">
        <ele>1387.8</ele>
        <time>2015-11-11T14:38:36Z</time>
      </trkpt>
      <trkpt lat="42.7209" lon="0.65506">
        <ele>1386.84</ele>
        <time>2015-11-11T14:38:52Z</time>
      </trkpt>
      <trkpt lat="42.72096" lon="0.65482">
        <ele>1386.36</ele>
        <time>2015-11-11T14:39:07Z</time>
      </trkpt>
      <trkpt lat="42.72098" lon="0.65474">
        <ele>1386.36</ele>
        <time>2015-11-11T14:39:13Z</time>
      </trkpt>
      <trkpt lat="42.72108" lon="0.65449">
        <ele>1384.92</ele>
        <time>2015-11-11T14:39:31Z</time>
      </trkpt>
      <trkpt lat="42.72118" lon="0.65434">
        <ele>1381.55</ele>
        <time>2015-11-11T14:39:45Z</time>
      </trkpt>
      <trkpt lat="42.72119" lon="0.6543">
        <ele>1381.07</ele>
        <time>2015-11-11T14:39:48Z</time>
      </trkpt>
      <trkpt lat="42.72122" lon="0.65427">
        <ele>1380.59</ele>
        <time>2015-11-11T14:39:51Z</time>
      </trkpt>
      <trkpt lat="42.72134" lon="0.65411">
        <ele>1377.23</ele>
        <time>2015-11-11T14:40:06Z</time>
      </trkpt>
      <trkpt lat="42.72134" lon="0.65409">
        <ele>1377.23</ele>
        <time>2015-11-11T14:40:07Z</time>
      </trkpt>
      <trkpt lat="42.72133" lon="0.65396">
        <ele>1376.75</ele>
        <time>2015-11-11T14:40:13Z</time>
      </trkpt>
      <trkpt lat="42.72128" lon="0.65383">
        <ele>1376.26</ele>
        <time>2015-11-11T14:40:23Z</time>
      </trkpt>
      <trkpt lat="42.72128" lon="0.65381">
        <ele>1376.26</ele>
        <time>2015-11-11T14:40:24Z</time>
      </trkpt>
      <trkpt lat="42.72136" lon="0.65365">
        <ele>1375.78</ele>
        <time>2015-11-11T14:40:40Z</time>
      </trkpt>
      <trkpt lat="42.72136" lon="0.65365">
        <ele>1375.78</ele>
        <time>2015-11-11T14:40:41Z</time>
      </trkpt>
      <trkpt lat="42.72137" lon="0.65363">
        <ele>1375.78</ele>
        <time>2015-11-11T14:40:42Z</time>
      </trkpt>
      <trkpt lat="42.72139" lon="0.65352">
        <ele>1375.3</ele>
        <time>2015-11-11T14:40:56Z</time>
      </trkpt>
      <trkpt lat="42.7214" lon="0.65351">
        <ele>1373.86</ele>
        <time>2015-11-11T14:41:02Z</time>
      </trkpt>
      <trkpt lat="42.72142" lon="0.65352">
        <ele>1372.9</ele>
        <time>2015-11-11T14:41:24Z</time>
      </trkpt>
      <trkpt lat="42.72141" lon="0.65352">
        <ele>1373.86</ele>
        <time>2015-11-11T14:41:57Z</time>
      </trkpt>
      <trkpt lat="42.7214" lon="0.6535">
        <ele>1374.82</ele>
        <time>2015-11-11T14:42:11Z</time>
      </trkpt>
    </trkseg>
  </trk>
</gpx>